<?xml version="1.0" encoding="UTF-8" standalone="no" ?>
<gpx xmlns="http://www.topografix.com/GPX/1/1" xmlns:xsi="http://www.w3.org/2001/XMLSchema-instance" xsi:schemaLocation="http://www.topografix.com/GPX/1/1 http://www.topografix.com/GPX/1/1/gpx.xsd" version="1.1" creator="VisuGPX - https://www.visugpx.com">
  <metadata>
    <name>pr8 randonnees desaignes</name>
    <desc><![CDATA[manque balisage prévoir tronçonneuse après le mas et sautereau]]></desc>
  </metadata>
  <trk>
    <name><![CDATA[Tracé 18 nov. 2015 09:02:44]]></name>
    <trkseg>
      <trkpt lat="44.9934" lon="4.51683">
        <ele>528</ele>
        <time>2015-11-18T08:02:44Z</time>
      </trkpt>
      <trkpt lat="44.9934" lon="4.51683">
        <ele>528</ele>
        <time>2015-11-18T08:02:50Z</time>
      </trkpt>
      <trkpt lat="44.99354" lon="4.51696">
        <ele>479</ele>
        <time>2015-11-18T08:02:55Z</time>
      </trkpt>
      <trkpt lat="44.99346" lon="4.51697">
        <ele>490</ele>
        <time>2015-11-18T08:03:27Z</time>
      </trkpt>
      <trkpt lat="44.99339" lon="4.517">
        <ele>490</ele>
        <time>2015-11-18T08:03:32Z</time>
      </trkpt>
      <trkpt lat="44.99332" lon="4.51701">
        <ele>490</ele>
        <time>2015-11-18T08:03:36Z</time>
      </trkpt>
      <trkpt lat="44.99326" lon="4.51694">
        <ele>491</ele>
        <time>2015-11-18T08:03:41Z</time>
      </trkpt>
      <trkpt lat="44.99318" lon="4.51694">
        <ele>491</ele>
        <time>2015-11-18T08:03:45Z</time>
      </trkpt>
      <trkpt lat="44.99311" lon="4.51692">
        <ele>491</ele>
        <time>2015-11-18T08:03:50Z</time>
      </trkpt>
      <trkpt lat="44.99302" lon="4.51689">
        <ele>489</ele>
        <time>2015-11-18T08:03:55Z</time>
      </trkpt>
      <trkpt lat="44.99297" lon="4.51684">
        <ele>489</ele>
        <time>2015-11-18T08:03:59Z</time>
      </trkpt>
      <trkpt lat="44.99288" lon="4.51683">
        <ele>489</ele>
        <time>2015-11-18T08:04:02Z</time>
      </trkpt>
      <trkpt lat="44.99277" lon="4.51686">
        <ele>489</ele>
        <time>2015-11-18T08:04:06Z</time>
      </trkpt>
      <trkpt lat="44.9927" lon="4.51681">
        <ele>489</ele>
        <time>2015-11-18T08:04:10Z</time>
      </trkpt>
      <trkpt lat="44.99261" lon="4.5168">
        <ele>489</ele>
        <time>2015-11-18T08:04:14Z</time>
      </trkpt>
      <trkpt lat="44.99252" lon="4.51677">
        <ele>490</ele>
        <time>2015-11-18T08:04:18Z</time>
      </trkpt>
      <trkpt lat="44.99245" lon="4.51676">
        <ele>490</ele>
        <time>2015-11-18T08:04:22Z</time>
      </trkpt>
      <trkpt lat="44.99238" lon="4.51674">
        <ele>489</ele>
        <time>2015-11-18T08:04:27Z</time>
      </trkpt>
      <trkpt lat="44.99232" lon="4.51674">
        <ele>489</ele>
        <time>2015-11-18T08:04:31Z</time>
      </trkpt>
      <trkpt lat="44.99225" lon="4.51674">
        <ele>489</ele>
        <time>2015-11-18T08:04:36Z</time>
      </trkpt>
      <trkpt lat="44.99219" lon="4.51675">
        <ele>489</ele>
        <time>2015-11-18T08:04:40Z</time>
      </trkpt>
      <trkpt lat="44.99215" lon="4.51669">
        <ele>489</ele>
        <time>2015-11-18T08:04:44Z</time>
      </trkpt>
      <trkpt lat="44.99211" lon="4.51659">
        <ele>489</ele>
        <time>2015-11-18T08:04:48Z</time>
      </trkpt>
      <trkpt lat="44.99206" lon="4.51658">
        <ele>489</ele>
        <time>2015-11-18T08:04:50Z</time>
      </trkpt>
      <trkpt lat="44.99195" lon="4.51651">
        <ele>489</ele>
        <time>2015-11-18T08:04:54Z</time>
      </trkpt>
      <trkpt lat="44.99191" lon="4.5164">
        <ele>489</ele>
        <time>2015-11-18T08:05:02Z</time>
      </trkpt>
      <trkpt lat="44.99184" lon="4.51639">
        <ele>489</ele>
        <time>2015-11-18T08:05:08Z</time>
      </trkpt>
      <trkpt lat="44.99177" lon="4.5164">
        <ele>489</ele>
        <time>2015-11-18T08:05:12Z</time>
      </trkpt>
      <trkpt lat="44.99171" lon="4.51638">
        <ele>489</ele>
        <time>2015-11-18T08:05:15Z</time>
      </trkpt>
      <trkpt lat="44.99164" lon="4.51634">
        <ele>488</ele>
        <time>2015-11-18T08:05:20Z</time>
      </trkpt>
      <trkpt lat="44.99156" lon="4.51631">
        <ele>489</ele>
        <time>2015-11-18T08:05:26Z</time>
      </trkpt>
      <trkpt lat="44.99147" lon="4.51629">
        <ele>488</ele>
        <time>2015-11-18T08:05:32Z</time>
      </trkpt>
      <trkpt lat="44.99139" lon="4.51631">
        <ele>488</ele>
        <time>2015-11-18T08:05:37Z</time>
      </trkpt>
      <trkpt lat="44.9913" lon="4.51631">
        <ele>488</ele>
        <time>2015-11-18T08:05:41Z</time>
      </trkpt>
      <trkpt lat="44.99121" lon="4.51628">
        <ele>488</ele>
        <time>2015-11-18T08:05:49Z</time>
      </trkpt>
      <trkpt lat="44.99114" lon="4.51627">
        <ele>488</ele>
        <time>2015-11-18T08:05:54Z</time>
      </trkpt>
      <trkpt lat="44.99107" lon="4.51622">
        <ele>488</ele>
        <time>2015-11-18T08:06:02Z</time>
      </trkpt>
      <trkpt lat="44.99099" lon="4.51618">
        <ele>488</ele>
        <time>2015-11-18T08:06:10Z</time>
      </trkpt>
      <trkpt lat="44.99092" lon="4.51617">
        <ele>488</ele>
        <time>2015-11-18T08:06:14Z</time>
      </trkpt>
      <trkpt lat="44.99079" lon="4.51623">
        <ele>488</ele>
        <time>2015-11-18T08:06:18Z</time>
      </trkpt>
      <trkpt lat="44.99069" lon="4.51622">
        <ele>488</ele>
        <time>2015-11-18T08:06:23Z</time>
      </trkpt>
      <trkpt lat="44.9906" lon="4.51619">
        <ele>487</ele>
        <time>2015-11-18T08:06:26Z</time>
      </trkpt>
      <trkpt lat="44.99052" lon="4.51618">
        <ele>488</ele>
        <time>2015-11-18T08:06:30Z</time>
      </trkpt>
      <trkpt lat="44.99045" lon="4.51616">
        <ele>487</ele>
        <time>2015-11-18T08:06:33Z</time>
      </trkpt>
      <trkpt lat="44.9903" lon="4.51615">
        <ele>487</ele>
        <time>2015-11-18T08:06:38Z</time>
      </trkpt>
      <trkpt lat="44.99022" lon="4.51612">
        <ele>487</ele>
        <time>2015-11-18T08:06:42Z</time>
      </trkpt>
      <trkpt lat="44.99017" lon="4.51603">
        <ele>487</ele>
        <time>2015-11-18T08:06:46Z</time>
      </trkpt>
      <trkpt lat="44.99011" lon="4.51597">
        <ele>487</ele>
        <time>2015-11-18T08:06:51Z</time>
      </trkpt>
      <trkpt lat="44.99003" lon="4.51582">
        <ele>487</ele>
        <time>2015-11-18T08:06:56Z</time>
      </trkpt>
      <trkpt lat="44.98992" lon="4.51574">
        <ele>487</ele>
        <time>2015-11-18T08:07:01Z</time>
      </trkpt>
      <trkpt lat="44.98985" lon="4.51569">
        <ele>487</ele>
        <time>2015-11-18T08:07:04Z</time>
      </trkpt>
      <trkpt lat="44.98978" lon="4.51558">
        <ele>487</ele>
        <time>2015-11-18T08:07:07Z</time>
      </trkpt>
      <trkpt lat="44.98967" lon="4.51554">
        <ele>487</ele>
        <time>2015-11-18T08:07:11Z</time>
      </trkpt>
      <trkpt lat="44.98964" lon="4.51549">
        <ele>486</ele>
        <time>2015-11-18T08:07:16Z</time>
      </trkpt>
      <trkpt lat="44.98956" lon="4.51539">
        <ele>485</ele>
        <time>2015-11-18T08:07:21Z</time>
      </trkpt>
      <trkpt lat="44.98947" lon="4.51533">
        <ele>485</ele>
        <time>2015-11-18T08:07:25Z</time>
      </trkpt>
      <trkpt lat="44.98939" lon="4.51527">
        <ele>485</ele>
        <time>2015-11-18T08:07:29Z</time>
      </trkpt>
      <trkpt lat="44.98926" lon="4.51526">
        <ele>484</ele>
        <time>2015-11-18T08:07:34Z</time>
      </trkpt>
      <trkpt lat="44.98922" lon="4.5152">
        <ele>484</ele>
        <time>2015-11-18T08:07:39Z</time>
      </trkpt>
      <trkpt lat="44.98918" lon="4.5151">
        <ele>483</ele>
        <time>2015-11-18T08:07:43Z</time>
      </trkpt>
      <trkpt lat="44.98915" lon="4.51498">
        <ele>483</ele>
        <time>2015-11-18T08:07:48Z</time>
      </trkpt>
      <trkpt lat="44.98912" lon="4.5149">
        <ele>482</ele>
        <time>2015-11-18T08:07:53Z</time>
      </trkpt>
      <trkpt lat="44.98911" lon="4.51479">
        <ele>481</ele>
        <time>2015-11-18T08:07:57Z</time>
      </trkpt>
      <trkpt lat="44.9891" lon="4.51467">
        <ele>481</ele>
        <time>2015-11-18T08:08:06Z</time>
      </trkpt>
      <trkpt lat="44.98911" lon="4.51456">
        <ele>480</ele>
        <time>2015-11-18T08:08:12Z</time>
      </trkpt>
      <trkpt lat="44.98909" lon="4.51447">
        <ele>479</ele>
        <time>2015-11-18T08:08:17Z</time>
      </trkpt>
      <trkpt lat="44.98907" lon="4.51436">
        <ele>478</ele>
        <time>2015-11-18T08:08:21Z</time>
      </trkpt>
      <trkpt lat="44.9891" lon="4.51426">
        <ele>477</ele>
        <time>2015-11-18T08:08:30Z</time>
      </trkpt>
      <trkpt lat="44.98913" lon="4.51416">
        <ele>476</ele>
        <time>2015-11-18T08:08:37Z</time>
      </trkpt>
      <trkpt lat="44.98906" lon="4.51407">
        <ele>477</ele>
        <time>2015-11-18T08:08:41Z</time>
      </trkpt>
      <trkpt lat="44.98901" lon="4.51397">
        <ele>477</ele>
        <time>2015-11-18T08:08:48Z</time>
      </trkpt>
      <trkpt lat="44.98897" lon="4.51387">
        <ele>477</ele>
        <time>2015-11-18T08:08:55Z</time>
      </trkpt>
      <trkpt lat="44.98893" lon="4.51381">
        <ele>476</ele>
        <time>2015-11-18T08:09:02Z</time>
      </trkpt>
      <trkpt lat="44.98886" lon="4.51373">
        <ele>476</ele>
        <time>2015-11-18T08:09:08Z</time>
      </trkpt>
      <trkpt lat="44.98881" lon="4.51367">
        <ele>476</ele>
        <time>2015-11-18T08:09:13Z</time>
      </trkpt>
      <trkpt lat="44.98874" lon="4.51361">
        <ele>476</ele>
        <time>2015-11-18T08:09:19Z</time>
      </trkpt>
      <trkpt lat="44.9887" lon="4.51353">
        <ele>475</ele>
        <time>2015-11-18T08:09:24Z</time>
      </trkpt>
      <trkpt lat="44.98864" lon="4.51344">
        <ele>475</ele>
        <time>2015-11-18T08:09:33Z</time>
      </trkpt>
      <trkpt lat="44.9886" lon="4.51336">
        <ele>475</ele>
        <time>2015-11-18T08:09:40Z</time>
      </trkpt>
      <trkpt lat="44.98858" lon="4.51326">
        <ele>475</ele>
        <time>2015-11-18T08:09:46Z</time>
      </trkpt>
      <trkpt lat="44.98855" lon="4.51314">
        <ele>476</ele>
        <time>2015-11-18T08:09:55Z</time>
      </trkpt>
      <trkpt lat="44.98851" lon="4.51307">
        <ele>476</ele>
        <time>2015-11-18T08:10:02Z</time>
      </trkpt>
      <trkpt lat="44.98845" lon="4.51298">
        <ele>476</ele>
        <time>2015-11-18T08:10:10Z</time>
      </trkpt>
      <trkpt lat="44.98843" lon="4.51289">
        <ele>476</ele>
        <time>2015-11-18T08:10:14Z</time>
      </trkpt>
      <trkpt lat="44.98843" lon="4.51277">
        <ele>477</ele>
        <time>2015-11-18T08:10:22Z</time>
      </trkpt>
      <trkpt lat="44.98842" lon="4.51267">
        <ele>478</ele>
        <time>2015-11-18T08:10:28Z</time>
      </trkpt>
      <trkpt lat="44.98838" lon="4.51257">
        <ele>479</ele>
        <time>2015-11-18T08:10:34Z</time>
      </trkpt>
      <trkpt lat="44.98833" lon="4.51251">
        <ele>480</ele>
        <time>2015-11-18T08:10:41Z</time>
      </trkpt>
      <trkpt lat="44.98826" lon="4.5124">
        <ele>482</ele>
        <time>2015-11-18T08:10:45Z</time>
      </trkpt>
      <trkpt lat="44.98821" lon="4.51231">
        <ele>483</ele>
        <time>2015-11-18T08:10:51Z</time>
      </trkpt>
      <trkpt lat="44.98814" lon="4.51229">
        <ele>484</ele>
        <time>2015-11-18T08:11:00Z</time>
      </trkpt>
      <trkpt lat="44.98805" lon="4.51227">
        <ele>486</ele>
        <time>2015-11-18T08:11:06Z</time>
      </trkpt>
      <trkpt lat="44.98799" lon="4.51223">
        <ele>487</ele>
        <time>2015-11-18T08:11:10Z</time>
      </trkpt>
      <trkpt lat="44.98803" lon="4.51212">
        <ele>492</ele>
        <time>2015-11-18T08:11:23Z</time>
      </trkpt>
      <trkpt lat="44.98809" lon="4.51204">
        <ele>494</ele>
        <time>2015-11-18T08:11:32Z</time>
      </trkpt>
      <trkpt lat="44.98814" lon="4.51196">
        <ele>494</ele>
        <time>2015-11-18T08:11:39Z</time>
      </trkpt>
      <trkpt lat="44.98818" lon="4.5119">
        <ele>494</ele>
        <time>2015-11-18T08:11:44Z</time>
      </trkpt>
      <trkpt lat="44.98823" lon="4.51186">
        <ele>495</ele>
        <time>2015-11-18T08:11:49Z</time>
      </trkpt>
      <trkpt lat="44.98833" lon="4.51169">
        <ele>496</ele>
        <time>2015-11-18T08:11:54Z</time>
      </trkpt>
      <trkpt lat="44.98835" lon="4.51158">
        <ele>500</ele>
        <time>2015-11-18T08:12:10Z</time>
      </trkpt>
      <trkpt lat="44.9883" lon="4.51151">
        <ele>501</ele>
        <time>2015-11-18T08:12:16Z</time>
      </trkpt>
      <trkpt lat="44.98824" lon="4.51142">
        <ele>503</ele>
        <time>2015-11-18T08:12:22Z</time>
      </trkpt>
      <trkpt lat="44.9882" lon="4.51137">
        <ele>504</ele>
        <time>2015-11-18T08:12:25Z</time>
      </trkpt>
      <trkpt lat="44.98815" lon="4.51135">
        <ele>504</ele>
        <time>2015-11-18T08:12:29Z</time>
      </trkpt>
      <trkpt lat="44.98808" lon="4.51131">
        <ele>505</ele>
        <time>2015-11-18T08:12:32Z</time>
      </trkpt>
      <trkpt lat="44.98804" lon="4.51126">
        <ele>505</ele>
        <time>2015-11-18T08:12:36Z</time>
      </trkpt>
      <trkpt lat="44.988" lon="4.51115">
        <ele>505</ele>
        <time>2015-11-18T08:12:39Z</time>
      </trkpt>
      <trkpt lat="44.98794" lon="4.51107">
        <ele>507</ele>
        <time>2015-11-18T08:12:50Z</time>
      </trkpt>
      <trkpt lat="44.98786" lon="4.51109">
        <ele>508</ele>
        <time>2015-11-18T08:12:56Z</time>
      </trkpt>
      <trkpt lat="44.98775" lon="4.51106">
        <ele>509</ele>
        <time>2015-11-18T08:13:00Z</time>
      </trkpt>
      <trkpt lat="44.98782" lon="4.51113">
        <ele>509</ele>
        <time>2015-11-18T08:13:11Z</time>
      </trkpt>
      <trkpt lat="44.98788" lon="4.51106">
        <ele>509</ele>
        <time>2015-11-18T08:13:42Z</time>
      </trkpt>
      <trkpt lat="44.98791" lon="4.51096">
        <ele>509</ele>
        <time>2015-11-18T08:13:48Z</time>
      </trkpt>
      <trkpt lat="44.98791" lon="4.51083">
        <ele>509</ele>
        <time>2015-11-18T08:13:52Z</time>
      </trkpt>
      <trkpt lat="44.9879" lon="4.51074">
        <ele>510</ele>
        <time>2015-11-18T08:13:58Z</time>
      </trkpt>
      <trkpt lat="44.98795" lon="4.51063">
        <ele>510</ele>
        <time>2015-11-18T08:14:04Z</time>
      </trkpt>
      <trkpt lat="44.988" lon="4.51055">
        <ele>510</ele>
        <time>2015-11-18T08:14:10Z</time>
      </trkpt>
      <trkpt lat="44.98803" lon="4.51048">
        <ele>510</ele>
        <time>2015-11-18T08:14:14Z</time>
      </trkpt>
      <trkpt lat="44.98805" lon="4.51038">
        <ele>509</ele>
        <time>2015-11-18T08:14:17Z</time>
      </trkpt>
      <trkpt lat="44.98806" lon="4.51023">
        <ele>509</ele>
        <time>2015-11-18T08:14:22Z</time>
      </trkpt>
      <trkpt lat="44.98808" lon="4.51013">
        <ele>509</ele>
        <time>2015-11-18T08:14:26Z</time>
      </trkpt>
      <trkpt lat="44.98812" lon="4.51">
        <ele>509</ele>
        <time>2015-11-18T08:14:31Z</time>
      </trkpt>
      <trkpt lat="44.98817" lon="4.5099">
        <ele>510</ele>
        <time>2015-11-18T08:14:35Z</time>
      </trkpt>
      <trkpt lat="44.98822" lon="4.50978">
        <ele>511</ele>
        <time>2015-11-18T08:14:39Z</time>
      </trkpt>
      <trkpt lat="44.98825" lon="4.50966">
        <ele>512</ele>
        <time>2015-11-18T08:14:43Z</time>
      </trkpt>
      <trkpt lat="44.98826" lon="4.50957">
        <ele>512</ele>
        <time>2015-11-18T08:14:46Z</time>
      </trkpt>
      <trkpt lat="44.98828" lon="4.50945">
        <ele>512</ele>
        <time>2015-11-18T08:14:51Z</time>
      </trkpt>
      <trkpt lat="44.98829" lon="4.50936">
        <ele>513</ele>
        <time>2015-11-18T08:14:57Z</time>
      </trkpt>
      <trkpt lat="44.98828" lon="4.50925">
        <ele>514</ele>
        <time>2015-11-18T08:15:00Z</time>
      </trkpt>
      <trkpt lat="44.98826" lon="4.50914">
        <ele>515</ele>
        <time>2015-11-18T08:15:04Z</time>
      </trkpt>
      <trkpt lat="44.98825" lon="4.50904">
        <ele>515</ele>
        <time>2015-11-18T08:15:10Z</time>
      </trkpt>
      <trkpt lat="44.98828" lon="4.50893">
        <ele>517</ele>
        <time>2015-11-18T08:15:18Z</time>
      </trkpt>
      <trkpt lat="44.98824" lon="4.50884">
        <ele>517</ele>
        <time>2015-11-18T08:15:22Z</time>
      </trkpt>
      <trkpt lat="44.98819" lon="4.50872">
        <ele>517</ele>
        <time>2015-11-18T08:15:27Z</time>
      </trkpt>
      <trkpt lat="44.98818" lon="4.50859">
        <ele>519</ele>
        <time>2015-11-18T08:15:33Z</time>
      </trkpt>
      <trkpt lat="44.98815" lon="4.50841">
        <ele>519</ele>
        <time>2015-11-18T08:15:38Z</time>
      </trkpt>
      <trkpt lat="44.9881" lon="4.50829">
        <ele>519</ele>
        <time>2015-11-18T08:15:43Z</time>
      </trkpt>
      <trkpt lat="44.98806" lon="4.50814">
        <ele>520</ele>
        <time>2015-11-18T08:15:48Z</time>
      </trkpt>
      <trkpt lat="44.98804" lon="4.50801">
        <ele>520</ele>
        <time>2015-11-18T08:15:52Z</time>
      </trkpt>
      <trkpt lat="44.98802" lon="4.50789">
        <ele>521</ele>
        <time>2015-11-18T08:15:56Z</time>
      </trkpt>
      <trkpt lat="44.98803" lon="4.50779">
        <ele>521</ele>
        <time>2015-11-18T08:16:00Z</time>
      </trkpt>
      <trkpt lat="44.98799" lon="4.50766">
        <ele>522</ele>
        <time>2015-11-18T08:16:05Z</time>
      </trkpt>
      <trkpt lat="44.98797" lon="4.50756">
        <ele>523</ele>
        <time>2015-11-18T08:16:12Z</time>
      </trkpt>
      <trkpt lat="44.98792" lon="4.50746">
        <ele>524</ele>
        <time>2015-11-18T08:16:17Z</time>
      </trkpt>
      <trkpt lat="44.98788" lon="4.5074">
        <ele>524</ele>
        <time>2015-11-18T08:16:21Z</time>
      </trkpt>
      <trkpt lat="44.98786" lon="4.50732">
        <ele>523</ele>
        <time>2015-11-18T08:16:25Z</time>
      </trkpt>
      <trkpt lat="44.98784" lon="4.50722">
        <ele>524</ele>
        <time>2015-11-18T08:16:29Z</time>
      </trkpt>
      <trkpt lat="44.9878" lon="4.50711">
        <ele>525</ele>
        <time>2015-11-18T08:16:34Z</time>
      </trkpt>
      <trkpt lat="44.98776" lon="4.50702">
        <ele>526</ele>
        <time>2015-11-18T08:16:41Z</time>
      </trkpt>
      <trkpt lat="44.98772" lon="4.50696">
        <ele>526</ele>
        <time>2015-11-18T08:16:46Z</time>
      </trkpt>
      <trkpt lat="44.98762" lon="4.50684">
        <ele>527</ele>
        <time>2015-11-18T08:16:51Z</time>
      </trkpt>
      <trkpt lat="44.98753" lon="4.50669">
        <ele>530</ele>
        <time>2015-11-18T08:16:55Z</time>
      </trkpt>
      <trkpt lat="44.9875" lon="4.50657">
        <ele>530</ele>
        <time>2015-11-18T08:17:00Z</time>
      </trkpt>
      <trkpt lat="44.98748" lon="4.50649">
        <ele>531</ele>
        <time>2015-11-18T08:17:04Z</time>
      </trkpt>
      <trkpt lat="44.98746" lon="4.50642">
        <ele>532</ele>
        <time>2015-11-18T08:17:07Z</time>
      </trkpt>
      <trkpt lat="44.98742" lon="4.50631">
        <ele>533</ele>
        <time>2015-11-18T08:17:10Z</time>
      </trkpt>
      <trkpt lat="44.98739" lon="4.50619">
        <ele>534</ele>
        <time>2015-11-18T08:17:19Z</time>
      </trkpt>
      <trkpt lat="44.98746" lon="4.50613">
        <ele>536</ele>
        <time>2015-11-18T08:17:30Z</time>
      </trkpt>
      <trkpt lat="44.98749" lon="4.50603">
        <ele>542</ele>
        <time>2015-11-18T08:17:42Z</time>
      </trkpt>
      <trkpt lat="44.98747" lon="4.50594">
        <ele>544</ele>
        <time>2015-11-18T08:17:46Z</time>
      </trkpt>
      <trkpt lat="44.98746" lon="4.50585">
        <ele>546</ele>
        <time>2015-11-18T08:17:51Z</time>
      </trkpt>
      <trkpt lat="44.98748" lon="4.50571">
        <ele>547</ele>
        <time>2015-11-18T08:17:56Z</time>
      </trkpt>
      <trkpt lat="44.9875" lon="4.50559">
        <ele>549</ele>
        <time>2015-11-18T08:18:01Z</time>
      </trkpt>
      <trkpt lat="44.98752" lon="4.50552">
        <ele>550</ele>
        <time>2015-11-18T08:18:05Z</time>
      </trkpt>
      <trkpt lat="44.98754" lon="4.50535">
        <ele>552</ele>
        <time>2015-11-18T08:18:10Z</time>
      </trkpt>
      <trkpt lat="44.98759" lon="4.50526">
        <ele>553</ele>
        <time>2015-11-18T08:18:14Z</time>
      </trkpt>
      <trkpt lat="44.98761" lon="4.50513">
        <ele>554</ele>
        <time>2015-11-18T08:18:18Z</time>
      </trkpt>
      <trkpt lat="44.98764" lon="4.50501">
        <ele>555</ele>
        <time>2015-11-18T08:18:22Z</time>
      </trkpt>
      <trkpt lat="44.9877" lon="4.50486">
        <ele>556</ele>
        <time>2015-11-18T08:18:27Z</time>
      </trkpt>
      <trkpt lat="44.98772" lon="4.50474">
        <ele>557</ele>
        <time>2015-11-18T08:18:32Z</time>
      </trkpt>
      <trkpt lat="44.98778" lon="4.50467">
        <ele>557</ele>
        <time>2015-11-18T08:18:34Z</time>
      </trkpt>
      <trkpt lat="44.98787" lon="4.50456">
        <ele>558</ele>
        <time>2015-11-18T08:18:39Z</time>
      </trkpt>
      <trkpt lat="44.98795" lon="4.50446">
        <ele>558</ele>
        <time>2015-11-18T08:18:43Z</time>
      </trkpt>
      <trkpt lat="44.98801" lon="4.5044">
        <ele>559</ele>
        <time>2015-11-18T08:18:47Z</time>
      </trkpt>
      <trkpt lat="44.98809" lon="4.50429">
        <ele>560</ele>
        <time>2015-11-18T08:18:52Z</time>
      </trkpt>
      <trkpt lat="44.98815" lon="4.50424">
        <ele>562</ele>
        <time>2015-11-18T08:18:55Z</time>
      </trkpt>
      <trkpt lat="44.98822" lon="4.50417">
        <ele>563</ele>
        <time>2015-11-18T08:19:01Z</time>
      </trkpt>
      <trkpt lat="44.98825" lon="4.50407">
        <ele>564</ele>
        <time>2015-11-18T08:19:05Z</time>
      </trkpt>
      <trkpt lat="44.98831" lon="4.50401">
        <ele>565</ele>
        <time>2015-11-18T08:19:10Z</time>
      </trkpt>
      <trkpt lat="44.98838" lon="4.50395">
        <ele>566</ele>
        <time>2015-11-18T08:19:15Z</time>
      </trkpt>
      <trkpt lat="44.98842" lon="4.50386">
        <ele>567</ele>
        <time>2015-11-18T08:19:21Z</time>
      </trkpt>
      <trkpt lat="44.98847" lon="4.50377">
        <ele>568</ele>
        <time>2015-11-18T08:19:30Z</time>
      </trkpt>
      <trkpt lat="44.98855" lon="4.5037">
        <ele>568</ele>
        <time>2015-11-18T08:19:38Z</time>
      </trkpt>
      <trkpt lat="44.9886" lon="4.50362">
        <ele>568</ele>
        <time>2015-11-18T08:19:42Z</time>
      </trkpt>
      <trkpt lat="44.98866" lon="4.50355">
        <ele>569</ele>
        <time>2015-11-18T08:19:47Z</time>
      </trkpt>
      <trkpt lat="44.9887" lon="4.50345">
        <ele>570</ele>
        <time>2015-11-18T08:19:54Z</time>
      </trkpt>
      <trkpt lat="44.98872" lon="4.50333">
        <ele>572</ele>
        <time>2015-11-18T08:20:02Z</time>
      </trkpt>
      <trkpt lat="44.9887" lon="4.50322">
        <ele>576</ele>
        <time>2015-11-18T08:20:17Z</time>
      </trkpt>
      <trkpt lat="44.98866" lon="4.50311">
        <ele>576</ele>
        <time>2015-11-18T08:20:27Z</time>
      </trkpt>
      <trkpt lat="44.9886" lon="4.503">
        <ele>576</ele>
        <time>2015-11-18T08:20:30Z</time>
      </trkpt>
      <trkpt lat="44.98852" lon="4.50289">
        <ele>576</ele>
        <time>2015-11-18T08:20:34Z</time>
      </trkpt>
      <trkpt lat="44.98847" lon="4.50283">
        <ele>577</ele>
        <time>2015-11-18T08:20:38Z</time>
      </trkpt>
      <trkpt lat="44.9884" lon="4.50277">
        <ele>577</ele>
        <time>2015-11-18T08:20:42Z</time>
      </trkpt>
      <trkpt lat="44.98834" lon="4.50266">
        <ele>577</ele>
        <time>2015-11-18T08:20:46Z</time>
      </trkpt>
      <trkpt lat="44.98828" lon="4.50254">
        <ele>578</ele>
        <time>2015-11-18T08:20:50Z</time>
      </trkpt>
      <trkpt lat="44.9882" lon="4.50247">
        <ele>578</ele>
        <time>2015-11-18T08:20:55Z</time>
      </trkpt>
      <trkpt lat="44.98813" lon="4.5024">
        <ele>578</ele>
        <time>2015-11-18T08:20:58Z</time>
      </trkpt>
      <trkpt lat="44.98807" lon="4.50233">
        <ele>579</ele>
        <time>2015-11-18T08:21:03Z</time>
      </trkpt>
      <trkpt lat="44.98799" lon="4.50227">
        <ele>579</ele>
        <time>2015-11-18T08:21:08Z</time>
      </trkpt>
      <trkpt lat="44.9879" lon="4.50222">
        <ele>579</ele>
        <time>2015-11-18T08:21:11Z</time>
      </trkpt>
      <trkpt lat="44.98781" lon="4.50219">
        <ele>580</ele>
        <time>2015-11-18T08:21:16Z</time>
      </trkpt>
      <trkpt lat="44.98774" lon="4.50219">
        <ele>580</ele>
        <time>2015-11-18T08:21:20Z</time>
      </trkpt>
      <trkpt lat="44.98765" lon="4.50218">
        <ele>581</ele>
        <time>2015-11-18T08:21:23Z</time>
      </trkpt>
      <trkpt lat="44.98759" lon="4.50213">
        <ele>581</ele>
        <time>2015-11-18T08:21:27Z</time>
      </trkpt>
      <trkpt lat="44.98751" lon="4.50208">
        <ele>581</ele>
        <time>2015-11-18T08:21:32Z</time>
      </trkpt>
      <trkpt lat="44.98745" lon="4.502">
        <ele>582</ele>
        <time>2015-11-18T08:21:40Z</time>
      </trkpt>
      <trkpt lat="44.98741" lon="4.50195">
        <ele>583</ele>
        <time>2015-11-18T08:21:45Z</time>
      </trkpt>
      <trkpt lat="44.98733" lon="4.50189">
        <ele>583</ele>
        <time>2015-11-18T08:21:52Z</time>
      </trkpt>
      <trkpt lat="44.98728" lon="4.50184">
        <ele>584</ele>
        <time>2015-11-18T08:21:57Z</time>
      </trkpt>
      <trkpt lat="44.98721" lon="4.50175">
        <ele>585</ele>
        <time>2015-11-18T08:22:01Z</time>
      </trkpt>
      <trkpt lat="44.98713" lon="4.5017">
        <ele>585</ele>
        <time>2015-11-18T08:22:06Z</time>
      </trkpt>
      <trkpt lat="44.98704" lon="4.50165">
        <ele>586</ele>
        <time>2015-11-18T08:22:10Z</time>
      </trkpt>
      <trkpt lat="44.98697" lon="4.5016">
        <ele>586</ele>
        <time>2015-11-18T08:22:13Z</time>
      </trkpt>
      <trkpt lat="44.98691" lon="4.50153">
        <ele>587</ele>
        <time>2015-11-18T08:22:19Z</time>
      </trkpt>
      <trkpt lat="44.98676" lon="4.50144">
        <ele>587</ele>
        <time>2015-11-18T08:22:23Z</time>
      </trkpt>
      <trkpt lat="44.98663" lon="4.50136">
        <ele>588</ele>
        <time>2015-11-18T08:22:27Z</time>
      </trkpt>
      <trkpt lat="44.98656" lon="4.50127">
        <ele>588</ele>
        <time>2015-11-18T08:22:31Z</time>
      </trkpt>
      <trkpt lat="44.98649" lon="4.50117">
        <ele>588</ele>
        <time>2015-11-18T08:22:36Z</time>
      </trkpt>
      <trkpt lat="44.98642" lon="4.50108">
        <ele>588</ele>
        <time>2015-11-18T08:22:40Z</time>
      </trkpt>
      <trkpt lat="44.98638" lon="4.501">
        <ele>588</ele>
        <time>2015-11-18T08:22:44Z</time>
      </trkpt>
      <trkpt lat="44.98634" lon="4.50094">
        <ele>589</ele>
        <time>2015-11-18T08:22:48Z</time>
      </trkpt>
      <trkpt lat="44.98624" lon="4.50086">
        <ele>590</ele>
        <time>2015-11-18T08:22:52Z</time>
      </trkpt>
      <trkpt lat="44.98618" lon="4.50074">
        <ele>591</ele>
        <time>2015-11-18T08:22:56Z</time>
      </trkpt>
      <trkpt lat="44.98615" lon="4.50066">
        <ele>592</ele>
        <time>2015-11-18T08:23:00Z</time>
      </trkpt>
      <trkpt lat="44.98616" lon="4.50056">
        <ele>592</ele>
        <time>2015-11-18T08:23:05Z</time>
      </trkpt>
      <trkpt lat="44.98615" lon="4.50045">
        <ele>593</ele>
        <time>2015-11-18T08:23:11Z</time>
      </trkpt>
      <trkpt lat="44.98621" lon="4.50039">
        <ele>593</ele>
        <time>2015-11-18T08:23:19Z</time>
      </trkpt>
      <trkpt lat="44.98615" lon="4.50024">
        <ele>594</ele>
        <time>2015-11-18T08:23:24Z</time>
      </trkpt>
      <trkpt lat="44.98612" lon="4.50021">
        <ele>594</ele>
        <time>2015-11-18T08:23:28Z</time>
      </trkpt>
      <trkpt lat="44.98603" lon="4.50004">
        <ele>594</ele>
        <time>2015-11-18T08:23:31Z</time>
      </trkpt>
      <trkpt lat="44.98596" lon="4.49991">
        <ele>595</ele>
        <time>2015-11-18T08:23:35Z</time>
      </trkpt>
      <trkpt lat="44.98592" lon="4.49986">
        <ele>595</ele>
        <time>2015-11-18T08:23:37Z</time>
      </trkpt>
      <trkpt lat="44.98589" lon="4.49978">
        <ele>596</ele>
        <time>2015-11-18T08:23:42Z</time>
      </trkpt>
      <trkpt lat="44.98584" lon="4.4997">
        <ele>597</ele>
        <time>2015-11-18T08:23:50Z</time>
      </trkpt>
      <trkpt lat="44.98587" lon="4.49958">
        <ele>598</ele>
        <time>2015-11-18T08:23:55Z</time>
      </trkpt>
      <trkpt lat="44.98586" lon="4.49946">
        <ele>599</ele>
        <time>2015-11-18T08:24:01Z</time>
      </trkpt>
      <trkpt lat="44.98592" lon="4.49942">
        <ele>600</ele>
        <time>2015-11-18T08:24:16Z</time>
      </trkpt>
      <trkpt lat="44.98601" lon="4.49938">
        <ele>600</ele>
        <time>2015-11-18T08:24:19Z</time>
      </trkpt>
      <trkpt lat="44.98611" lon="4.49932">
        <ele>600</ele>
        <time>2015-11-18T08:24:23Z</time>
      </trkpt>
      <trkpt lat="44.98619" lon="4.49931">
        <ele>600</ele>
        <time>2015-11-18T08:24:28Z</time>
      </trkpt>
      <trkpt lat="44.98627" lon="4.49928">
        <ele>601</ele>
        <time>2015-11-18T08:24:35Z</time>
      </trkpt>
      <trkpt lat="44.98634" lon="4.49923">
        <ele>602</ele>
        <time>2015-11-18T08:24:39Z</time>
      </trkpt>
      <trkpt lat="44.9864" lon="4.49916">
        <ele>607</ele>
        <time>2015-11-18T08:24:59Z</time>
      </trkpt>
      <trkpt lat="44.98648" lon="4.49913">
        <ele>610</ele>
        <time>2015-11-18T08:25:04Z</time>
      </trkpt>
      <trkpt lat="44.98654" lon="4.49907">
        <ele>613</ele>
        <time>2015-11-18T08:25:10Z</time>
      </trkpt>
      <trkpt lat="44.98659" lon="4.499">
        <ele>615</ele>
        <time>2015-11-18T08:25:21Z</time>
      </trkpt>
      <trkpt lat="44.98658" lon="4.49891">
        <ele>616</ele>
        <time>2015-11-18T08:25:33Z</time>
      </trkpt>
      <trkpt lat="44.98659" lon="4.49878">
        <ele>617</ele>
        <time>2015-11-18T08:25:40Z</time>
      </trkpt>
      <trkpt lat="44.98665" lon="4.4987">
        <ele>617</ele>
        <time>2015-11-18T08:25:53Z</time>
      </trkpt>
      <trkpt lat="44.98669" lon="4.49859">
        <ele>617</ele>
        <time>2015-11-18T08:26:00Z</time>
      </trkpt>
      <trkpt lat="44.98671" lon="4.4985">
        <ele>618</ele>
        <time>2015-11-18T08:26:10Z</time>
      </trkpt>
      <trkpt lat="44.98669" lon="4.4984">
        <ele>618</ele>
        <time>2015-11-18T08:26:15Z</time>
      </trkpt>
      <trkpt lat="44.98665" lon="4.49833">
        <ele>618</ele>
        <time>2015-11-18T08:26:18Z</time>
      </trkpt>
      <trkpt lat="44.98663" lon="4.49822">
        <ele>619</ele>
        <time>2015-11-18T08:26:22Z</time>
      </trkpt>
      <trkpt lat="44.98657" lon="4.49816">
        <ele>619</ele>
        <time>2015-11-18T08:26:37Z</time>
      </trkpt>
      <trkpt lat="44.98664" lon="4.49809">
        <ele>619</ele>
        <time>2015-11-18T08:26:51Z</time>
      </trkpt>
      <trkpt lat="44.98664" lon="4.49797">
        <ele>618</ele>
        <time>2015-11-18T08:27:02Z</time>
      </trkpt>
      <trkpt lat="44.98665" lon="4.49787">
        <ele>618</ele>
        <time>2015-11-18T08:27:09Z</time>
      </trkpt>
      <trkpt lat="44.98665" lon="4.49777">
        <ele>618</ele>
        <time>2015-11-18T08:27:13Z</time>
      </trkpt>
      <trkpt lat="44.98668" lon="4.49766">
        <ele>618</ele>
        <time>2015-11-18T08:27:18Z</time>
      </trkpt>
      <trkpt lat="44.98672" lon="4.49756">
        <ele>617</ele>
        <time>2015-11-18T08:27:33Z</time>
      </trkpt>
      <trkpt lat="44.98672" lon="4.49743">
        <ele>617</ele>
        <time>2015-11-18T08:27:37Z</time>
      </trkpt>
      <trkpt lat="44.98673" lon="4.49732">
        <ele>617</ele>
        <time>2015-11-18T08:27:44Z</time>
      </trkpt>
      <trkpt lat="44.98672" lon="4.49723">
        <ele>616</ele>
        <time>2015-11-18T08:27:50Z</time>
      </trkpt>
      <trkpt lat="44.98673" lon="4.49714">
        <ele>616</ele>
        <time>2015-11-18T08:27:57Z</time>
      </trkpt>
      <trkpt lat="44.9867" lon="4.49709">
        <ele>616</ele>
        <time>2015-11-18T08:28:05Z</time>
      </trkpt>
      <trkpt lat="44.98667" lon="4.49697">
        <ele>616</ele>
        <time>2015-11-18T08:28:09Z</time>
      </trkpt>
      <trkpt lat="44.98665" lon="4.49686">
        <ele>616</ele>
        <time>2015-11-18T08:28:15Z</time>
      </trkpt>
      <trkpt lat="44.98664" lon="4.49671">
        <ele>616</ele>
        <time>2015-11-18T08:28:19Z</time>
      </trkpt>
      <trkpt lat="44.98667" lon="4.49662">
        <ele>616</ele>
        <time>2015-11-18T08:28:23Z</time>
      </trkpt>
      <trkpt lat="44.98671" lon="4.49651">
        <ele>616</ele>
        <time>2015-11-18T08:28:28Z</time>
      </trkpt>
      <trkpt lat="44.98672" lon="4.49639">
        <ele>615</ele>
        <time>2015-11-18T08:28:40Z</time>
      </trkpt>
      <trkpt lat="44.9868" lon="4.49634">
        <ele>614</ele>
        <time>2015-11-18T08:28:46Z</time>
      </trkpt>
      <trkpt lat="44.98682" lon="4.49622">
        <ele>613</ele>
        <time>2015-11-18T08:29:02Z</time>
      </trkpt>
      <trkpt lat="44.98682" lon="4.49611">
        <ele>612</ele>
        <time>2015-11-18T08:29:06Z</time>
      </trkpt>
      <trkpt lat="44.98681" lon="4.49602">
        <ele>612</ele>
        <time>2015-11-18T08:29:10Z</time>
      </trkpt>
      <trkpt lat="44.98673" lon="4.49591">
        <ele>612</ele>
        <time>2015-11-18T08:29:14Z</time>
      </trkpt>
      <trkpt lat="44.98665" lon="4.4958">
        <ele>612</ele>
        <time>2015-11-18T08:29:19Z</time>
      </trkpt>
      <trkpt lat="44.98659" lon="4.49572">
        <ele>612</ele>
        <time>2015-11-18T08:29:26Z</time>
      </trkpt>
      <trkpt lat="44.98656" lon="4.49562">
        <ele>612</ele>
        <time>2015-11-18T08:29:34Z</time>
      </trkpt>
      <trkpt lat="44.98658" lon="4.49551">
        <ele>612</ele>
        <time>2015-11-18T08:29:41Z</time>
      </trkpt>
      <trkpt lat="44.98663" lon="4.49541">
        <ele>612</ele>
        <time>2015-11-18T08:29:46Z</time>
      </trkpt>
      <trkpt lat="44.98657" lon="4.49533">
        <ele>612</ele>
        <time>2015-11-18T08:29:58Z</time>
      </trkpt>
      <trkpt lat="44.98656" lon="4.49518">
        <ele>611</ele>
        <time>2015-11-18T08:30:02Z</time>
      </trkpt>
      <trkpt lat="44.98661" lon="4.49508">
        <ele>612</ele>
        <time>2015-11-18T08:30:08Z</time>
      </trkpt>
      <trkpt lat="44.98667" lon="4.49499">
        <ele>611</ele>
        <time>2015-11-18T08:30:19Z</time>
      </trkpt>
      <trkpt lat="44.98673" lon="4.49493">
        <ele>610</ele>
        <time>2015-11-18T08:30:25Z</time>
      </trkpt>
      <trkpt lat="44.98679" lon="4.49493">
        <ele>610</ele>
        <time>2015-11-18T08:30:30Z</time>
      </trkpt>
      <trkpt lat="44.98686" lon="4.49495">
        <ele>609</ele>
        <time>2015-11-18T08:30:33Z</time>
      </trkpt>
      <trkpt lat="44.98693" lon="4.49497">
        <ele>608</ele>
        <time>2015-11-18T08:30:43Z</time>
      </trkpt>
      <trkpt lat="44.987" lon="4.49502">
        <ele>607</ele>
        <time>2015-11-18T08:30:51Z</time>
      </trkpt>
      <trkpt lat="44.98707" lon="4.49497">
        <ele>607</ele>
        <time>2015-11-18T08:31:01Z</time>
      </trkpt>
      <trkpt lat="44.98713" lon="4.49494">
        <ele>608</ele>
        <time>2015-11-18T08:31:04Z</time>
      </trkpt>
      <trkpt lat="44.98717" lon="4.49489">
        <ele>609</ele>
        <time>2015-11-18T08:31:14Z</time>
      </trkpt>
      <trkpt lat="44.98719" lon="4.49478">
        <ele>613</ele>
        <time>2015-11-18T08:31:23Z</time>
      </trkpt>
      <trkpt lat="44.98716" lon="4.49467">
        <ele>619</ele>
        <time>2015-11-18T08:31:35Z</time>
      </trkpt>
      <trkpt lat="44.98719" lon="4.49476">
        <ele>627</ele>
        <time>2015-11-18T08:32:03Z</time>
      </trkpt>
      <trkpt lat="44.9872" lon="4.49464">
        <ele>632</ele>
        <time>2015-11-18T08:32:29Z</time>
      </trkpt>
      <trkpt lat="44.98727" lon="4.49469">
        <ele>647</ele>
        <time>2015-11-18T08:33:03Z</time>
      </trkpt>
      <trkpt lat="44.98732" lon="4.4948">
        <ele>652</ele>
        <time>2015-11-18T08:33:11Z</time>
      </trkpt>
      <trkpt lat="44.98738" lon="4.49482">
        <ele>655</ele>
        <time>2015-11-18T08:33:16Z</time>
      </trkpt>
      <trkpt lat="44.98746" lon="4.49486">
        <ele>658</ele>
        <time>2015-11-18T08:33:24Z</time>
      </trkpt>
      <trkpt lat="44.98754" lon="4.49489">
        <ele>661</ele>
        <time>2015-11-18T08:33:30Z</time>
      </trkpt>
      <trkpt lat="44.98762" lon="4.49493">
        <ele>671</ele>
        <time>2015-11-18T08:34:01Z</time>
      </trkpt>
      <trkpt lat="44.98764" lon="4.49481">
        <ele>673</ele>
        <time>2015-11-18T08:34:12Z</time>
      </trkpt>
      <trkpt lat="44.98757" lon="4.49468">
        <ele>674</ele>
        <time>2015-11-18T08:34:16Z</time>
      </trkpt>
      <trkpt lat="44.98753" lon="4.4946">
        <ele>674</ele>
        <time>2015-11-18T08:34:19Z</time>
      </trkpt>
      <trkpt lat="44.98747" lon="4.4945">
        <ele>674</ele>
        <time>2015-11-18T08:34:24Z</time>
      </trkpt>
      <trkpt lat="44.98743" lon="4.49439">
        <ele>675</ele>
        <time>2015-11-18T08:34:27Z</time>
      </trkpt>
      <trkpt lat="44.98737" lon="4.49426">
        <ele>675</ele>
        <time>2015-11-18T08:34:31Z</time>
      </trkpt>
      <trkpt lat="44.98733" lon="4.49419">
        <ele>675</ele>
        <time>2015-11-18T08:34:35Z</time>
      </trkpt>
      <trkpt lat="44.9873" lon="4.49408">
        <ele>676</ele>
        <time>2015-11-18T08:34:39Z</time>
      </trkpt>
      <trkpt lat="44.98723" lon="4.49401">
        <ele>676</ele>
        <time>2015-11-18T08:34:43Z</time>
      </trkpt>
      <trkpt lat="44.98715" lon="4.4939">
        <ele>677</ele>
        <time>2015-11-18T08:34:48Z</time>
      </trkpt>
      <trkpt lat="44.98708" lon="4.49382">
        <ele>676</ele>
        <time>2015-11-18T08:34:53Z</time>
      </trkpt>
      <trkpt lat="44.98702" lon="4.49372">
        <ele>676</ele>
        <time>2015-11-18T08:34:57Z</time>
      </trkpt>
      <trkpt lat="44.98697" lon="4.49363">
        <ele>676</ele>
        <time>2015-11-18T08:35:01Z</time>
      </trkpt>
      <trkpt lat="44.9869" lon="4.49353">
        <ele>676</ele>
        <time>2015-11-18T08:35:06Z</time>
      </trkpt>
      <trkpt lat="44.98685" lon="4.49342">
        <ele>676</ele>
        <time>2015-11-18T08:35:10Z</time>
      </trkpt>
      <trkpt lat="44.98683" lon="4.49333">
        <ele>676</ele>
        <time>2015-11-18T08:35:14Z</time>
      </trkpt>
      <trkpt lat="44.98678" lon="4.49325">
        <ele>675</ele>
        <time>2015-11-18T08:35:17Z</time>
      </trkpt>
      <trkpt lat="44.98673" lon="4.49315">
        <ele>675</ele>
        <time>2015-11-18T08:35:21Z</time>
      </trkpt>
      <trkpt lat="44.9867" lon="4.49303">
        <ele>675</ele>
        <time>2015-11-18T08:35:25Z</time>
      </trkpt>
      <trkpt lat="44.98666" lon="4.49296">
        <ele>675</ele>
        <time>2015-11-18T08:35:29Z</time>
      </trkpt>
      <trkpt lat="44.9866" lon="4.49286">
        <ele>675</ele>
        <time>2015-11-18T08:35:33Z</time>
      </trkpt>
      <trkpt lat="44.98657" lon="4.49276">
        <ele>674</ele>
        <time>2015-11-18T08:35:37Z</time>
      </trkpt>
      <trkpt lat="44.98654" lon="4.49266">
        <ele>674</ele>
        <time>2015-11-18T08:35:41Z</time>
      </trkpt>
      <trkpt lat="44.98652" lon="4.49256">
        <ele>673</ele>
        <time>2015-11-18T08:35:46Z</time>
      </trkpt>
      <trkpt lat="44.98655" lon="4.49242">
        <ele>674</ele>
        <time>2015-11-18T08:35:51Z</time>
      </trkpt>
      <trkpt lat="44.98655" lon="4.49232">
        <ele>673</ele>
        <time>2015-11-18T08:36:00Z</time>
      </trkpt>
      <trkpt lat="44.98656" lon="4.49221">
        <ele>673</ele>
        <time>2015-11-18T08:36:04Z</time>
      </trkpt>
      <trkpt lat="44.98656" lon="4.49208">
        <ele>673</ele>
        <time>2015-11-18T08:36:09Z</time>
      </trkpt>
      <trkpt lat="44.98657" lon="4.49197">
        <ele>673</ele>
        <time>2015-11-18T08:36:13Z</time>
      </trkpt>
      <trkpt lat="44.98662" lon="4.49189">
        <ele>672</ele>
        <time>2015-11-18T08:36:22Z</time>
      </trkpt>
      <trkpt lat="44.98667" lon="4.49182">
        <ele>672</ele>
        <time>2015-11-18T08:36:27Z</time>
      </trkpt>
      <trkpt lat="44.98675" lon="4.49171">
        <ele>671</ele>
        <time>2015-11-18T08:36:31Z</time>
      </trkpt>
      <trkpt lat="44.98691" lon="4.49152">
        <ele>671</ele>
        <time>2015-11-18T08:36:36Z</time>
      </trkpt>
      <trkpt lat="44.98692" lon="4.49134">
        <ele>671</ele>
        <time>2015-11-18T08:36:39Z</time>
      </trkpt>
      <trkpt lat="44.98688" lon="4.49117">
        <ele>670</ele>
        <time>2015-11-18T08:36:43Z</time>
      </trkpt>
      <trkpt lat="44.98684" lon="4.49107">
        <ele>670</ele>
        <time>2015-11-18T08:36:47Z</time>
      </trkpt>
      <trkpt lat="44.98681" lon="4.49096">
        <ele>670</ele>
        <time>2015-11-18T08:36:53Z</time>
      </trkpt>
      <trkpt lat="44.98678" lon="4.49089">
        <ele>670</ele>
        <time>2015-11-18T08:36:56Z</time>
      </trkpt>
      <trkpt lat="44.98673" lon="4.49082">
        <ele>670</ele>
        <time>2015-11-18T08:37:00Z</time>
      </trkpt>
      <trkpt lat="44.9867" lon="4.49075">
        <ele>670</ele>
        <time>2015-11-18T08:37:04Z</time>
      </trkpt>
      <trkpt lat="44.98664" lon="4.49067">
        <ele>669</ele>
        <time>2015-11-18T08:37:09Z</time>
      </trkpt>
      <trkpt lat="44.98656" lon="4.49062">
        <ele>669</ele>
        <time>2015-11-18T08:37:16Z</time>
      </trkpt>
      <trkpt lat="44.98648" lon="4.49061">
        <ele>669</ele>
        <time>2015-11-18T08:37:21Z</time>
      </trkpt>
      <trkpt lat="44.98642" lon="4.49058">
        <ele>669</ele>
        <time>2015-11-18T08:37:24Z</time>
      </trkpt>
      <trkpt lat="44.98636" lon="4.49053">
        <ele>668</ele>
        <time>2015-11-18T08:37:28Z</time>
      </trkpt>
      <trkpt lat="44.98628" lon="4.49046">
        <ele>668</ele>
        <time>2015-11-18T08:37:34Z</time>
      </trkpt>
      <trkpt lat="44.98622" lon="4.49042">
        <ele>668</ele>
        <time>2015-11-18T08:37:39Z</time>
      </trkpt>
      <trkpt lat="44.98617" lon="4.49038">
        <ele>668</ele>
        <time>2015-11-18T08:37:43Z</time>
      </trkpt>
      <trkpt lat="44.9861" lon="4.4904">
        <ele>668</ele>
        <time>2015-11-18T08:37:49Z</time>
      </trkpt>
      <trkpt lat="44.98603" lon="4.49039">
        <ele>668</ele>
        <time>2015-11-18T08:37:55Z</time>
      </trkpt>
      <trkpt lat="44.98596" lon="4.49037">
        <ele>668</ele>
        <time>2015-11-18T08:38:00Z</time>
      </trkpt>
      <trkpt lat="44.98588" lon="4.49035">
        <ele>668</ele>
        <time>2015-11-18T08:38:07Z</time>
      </trkpt>
      <trkpt lat="44.98581" lon="4.49032">
        <ele>669</ele>
        <time>2015-11-18T08:38:20Z</time>
      </trkpt>
      <trkpt lat="44.98567" lon="4.4902">
        <ele>670</ele>
        <time>2015-11-18T08:38:25Z</time>
      </trkpt>
      <trkpt lat="44.98559" lon="4.49026">
        <ele>671</ele>
        <time>2015-11-18T08:38:33Z</time>
      </trkpt>
      <trkpt lat="44.98554" lon="4.49033">
        <ele>671</ele>
        <time>2015-11-18T08:38:39Z</time>
      </trkpt>
      <trkpt lat="44.98549" lon="4.49038">
        <ele>672</ele>
        <time>2015-11-18T08:38:44Z</time>
      </trkpt>
      <trkpt lat="44.98541" lon="4.49042">
        <ele>674</ele>
        <time>2015-11-18T08:38:51Z</time>
      </trkpt>
      <trkpt lat="44.98534" lon="4.49048">
        <ele>675</ele>
        <time>2015-11-18T08:38:57Z</time>
      </trkpt>
      <trkpt lat="44.98526" lon="4.49059">
        <ele>677</ele>
        <time>2015-11-18T08:39:02Z</time>
      </trkpt>
      <trkpt lat="44.9852" lon="4.49069">
        <ele>681</ele>
        <time>2015-11-18T08:39:23Z</time>
      </trkpt>
      <trkpt lat="44.98513" lon="4.49075">
        <ele>682</ele>
        <time>2015-11-18T08:39:43Z</time>
      </trkpt>
      <trkpt lat="44.98515" lon="4.49063">
        <ele>692</ele>
        <time>2015-11-18T08:40:32Z</time>
      </trkpt>
      <trkpt lat="44.98507" lon="4.49069">
        <ele>696</ele>
        <time>2015-11-18T08:41:07Z</time>
      </trkpt>
      <trkpt lat="44.98501" lon="4.49077">
        <ele>697</ele>
        <time>2015-11-18T08:41:24Z</time>
      </trkpt>
      <trkpt lat="44.98493" lon="4.49084">
        <ele>702</ele>
        <time>2015-11-18T08:41:28Z</time>
      </trkpt>
      <trkpt lat="44.98488" lon="4.49091">
        <ele>711</ele>
        <time>2015-11-18T08:42:18Z</time>
      </trkpt>
      <trkpt lat="44.98494" lon="4.49083">
        <ele>716</ele>
        <time>2015-11-18T08:42:34Z</time>
      </trkpt>
      <trkpt lat="44.98498" lon="4.49076">
        <ele>716</ele>
        <time>2015-11-18T08:42:39Z</time>
      </trkpt>
      <trkpt lat="44.98497" lon="4.49066">
        <ele>717</ele>
        <time>2015-11-18T08:42:49Z</time>
      </trkpt>
      <trkpt lat="44.98489" lon="4.4906">
        <ele>718</ele>
        <time>2015-11-18T08:42:59Z</time>
      </trkpt>
      <trkpt lat="44.98482" lon="4.49052">
        <ele>718</ele>
        <time>2015-11-18T08:43:11Z</time>
      </trkpt>
      <trkpt lat="44.98476" lon="4.49051">
        <ele>718</ele>
        <time>2015-11-18T08:43:16Z</time>
      </trkpt>
      <trkpt lat="44.98467" lon="4.49061">
        <ele>718</ele>
        <time>2015-11-18T08:43:21Z</time>
      </trkpt>
      <trkpt lat="44.98458" lon="4.49069">
        <ele>718</ele>
        <time>2015-11-18T08:43:25Z</time>
      </trkpt>
      <trkpt lat="44.98451" lon="4.49068">
        <ele>718</ele>
        <time>2015-11-18T08:43:30Z</time>
      </trkpt>
      <trkpt lat="44.98446" lon="4.49074">
        <ele>719</ele>
        <time>2015-11-18T08:43:41Z</time>
      </trkpt>
      <trkpt lat="44.98443" lon="4.49085">
        <ele>719</ele>
        <time>2015-11-18T08:43:48Z</time>
      </trkpt>
      <trkpt lat="44.98436" lon="4.4909">
        <ele>718</ele>
        <time>2015-11-18T08:44:05Z</time>
      </trkpt>
      <trkpt lat="44.98431" lon="4.49094">
        <ele>717</ele>
        <time>2015-11-18T08:44:16Z</time>
      </trkpt>
      <trkpt lat="44.98422" lon="4.49089">
        <ele>717</ele>
        <time>2015-11-18T08:44:20Z</time>
      </trkpt>
      <trkpt lat="44.98413" lon="4.49086">
        <ele>717</ele>
        <time>2015-11-18T08:44:25Z</time>
      </trkpt>
      <trkpt lat="44.98404" lon="4.49084">
        <ele>716</ele>
        <time>2015-11-18T08:44:35Z</time>
      </trkpt>
      <trkpt lat="44.98398" lon="4.49079">
        <ele>715</ele>
        <time>2015-11-18T08:44:41Z</time>
      </trkpt>
      <trkpt lat="44.98396" lon="4.49074">
        <ele>715</ele>
        <time>2015-11-18T08:44:44Z</time>
      </trkpt>
      <trkpt lat="44.98389" lon="4.49051">
        <ele>715</ele>
        <time>2015-11-18T08:44:55Z</time>
      </trkpt>
      <trkpt lat="44.98388" lon="4.49035">
        <ele>714</ele>
        <time>2015-11-18T08:44:59Z</time>
      </trkpt>
      <trkpt lat="44.98384" lon="4.4902">
        <ele>713</ele>
        <time>2015-11-18T08:45:04Z</time>
      </trkpt>
      <trkpt lat="44.98387" lon="4.49001">
        <ele>713</ele>
        <time>2015-11-18T08:45:09Z</time>
      </trkpt>
      <trkpt lat="44.98386" lon="4.48991">
        <ele>712</ele>
        <time>2015-11-18T08:45:13Z</time>
      </trkpt>
      <trkpt lat="44.98384" lon="4.48983">
        <ele>711</ele>
        <time>2015-11-18T08:45:18Z</time>
      </trkpt>
      <trkpt lat="44.98379" lon="4.48974">
        <ele>710</ele>
        <time>2015-11-18T08:45:23Z</time>
      </trkpt>
      <trkpt lat="44.98376" lon="4.48965">
        <ele>709</ele>
        <time>2015-11-18T08:45:27Z</time>
      </trkpt>
      <trkpt lat="44.98368" lon="4.48955">
        <ele>708</ele>
        <time>2015-11-18T08:45:31Z</time>
      </trkpt>
      <trkpt lat="44.98357" lon="4.48941">
        <ele>707</ele>
        <time>2015-11-18T08:45:35Z</time>
      </trkpt>
      <trkpt lat="44.98338" lon="4.48922">
        <ele>707</ele>
        <time>2015-11-18T08:45:40Z</time>
      </trkpt>
      <trkpt lat="44.98332" lon="4.48914">
        <ele>705</ele>
        <time>2015-11-18T08:45:55Z</time>
      </trkpt>
      <trkpt lat="44.98325" lon="4.48913">
        <ele>704</ele>
        <time>2015-11-18T08:45:59Z</time>
      </trkpt>
      <trkpt lat="44.9832" lon="4.48906">
        <ele>704</ele>
        <time>2015-11-18T08:46:05Z</time>
      </trkpt>
      <trkpt lat="44.98323" lon="4.48897">
        <ele>704</ele>
        <time>2015-11-18T08:46:09Z</time>
      </trkpt>
      <trkpt lat="44.98331" lon="4.48894">
        <ele>703</ele>
        <time>2015-11-18T08:46:16Z</time>
      </trkpt>
      <trkpt lat="44.98333" lon="4.48884">
        <ele>702</ele>
        <time>2015-11-18T08:46:25Z</time>
      </trkpt>
      <trkpt lat="44.98335" lon="4.48871">
        <ele>702</ele>
        <time>2015-11-18T08:46:30Z</time>
      </trkpt>
      <trkpt lat="44.98335" lon="4.48859">
        <ele>702</ele>
        <time>2015-11-18T08:46:34Z</time>
      </trkpt>
      <trkpt lat="44.98327" lon="4.48842">
        <ele>702</ele>
        <time>2015-11-18T08:46:38Z</time>
      </trkpt>
      <trkpt lat="44.98325" lon="4.4883">
        <ele>702</ele>
        <time>2015-11-18T08:46:46Z</time>
      </trkpt>
      <trkpt lat="44.98328" lon="4.48822">
        <ele>702</ele>
        <time>2015-11-18T08:46:54Z</time>
      </trkpt>
      <trkpt lat="44.98336" lon="4.48815">
        <ele>701</ele>
        <time>2015-11-18T08:46:59Z</time>
      </trkpt>
      <trkpt lat="44.98339" lon="4.48812">
        <ele>701</ele>
        <time>2015-11-18T08:47:02Z</time>
      </trkpt>
      <trkpt lat="44.98345" lon="4.48806">
        <ele>701</ele>
        <time>2015-11-18T08:47:05Z</time>
      </trkpt>
      <trkpt lat="44.98351" lon="4.48798">
        <ele>700</ele>
        <time>2015-11-18T08:47:10Z</time>
      </trkpt>
      <trkpt lat="44.98352" lon="4.48787">
        <ele>699</ele>
        <time>2015-11-18T08:47:19Z</time>
      </trkpt>
      <trkpt lat="44.98345" lon="4.48782">
        <ele>698</ele>
        <time>2015-11-18T08:47:23Z</time>
      </trkpt>
      <trkpt lat="44.9834" lon="4.48775">
        <ele>699</ele>
        <time>2015-11-18T08:47:26Z</time>
      </trkpt>
      <trkpt lat="44.9833" lon="4.48761">
        <ele>698</ele>
        <time>2015-11-18T08:47:31Z</time>
      </trkpt>
      <trkpt lat="44.98324" lon="4.48753">
        <ele>698</ele>
        <time>2015-11-18T08:47:36Z</time>
      </trkpt>
      <trkpt lat="44.98316" lon="4.48751">
        <ele>698</ele>
        <time>2015-11-18T08:47:41Z</time>
      </trkpt>
      <trkpt lat="44.98322" lon="4.48742">
        <ele>700</ele>
        <time>2015-11-18T08:47:57Z</time>
      </trkpt>
      <trkpt lat="44.98315" lon="4.48743">
        <ele>701</ele>
        <time>2015-11-18T08:48:04Z</time>
      </trkpt>
      <trkpt lat="44.98305" lon="4.48736">
        <ele>701</ele>
        <time>2015-11-18T08:48:07Z</time>
      </trkpt>
      <trkpt lat="44.98299" lon="4.48732">
        <ele>701</ele>
        <time>2015-11-18T08:48:14Z</time>
      </trkpt>
      <trkpt lat="44.9829" lon="4.48731">
        <ele>700</ele>
        <time>2015-11-18T08:48:23Z</time>
      </trkpt>
      <trkpt lat="44.98284" lon="4.48726">
        <ele>700</ele>
        <time>2015-11-18T08:48:29Z</time>
      </trkpt>
      <trkpt lat="44.98274" lon="4.4872">
        <ele>700</ele>
        <time>2015-11-18T08:48:34Z</time>
      </trkpt>
      <trkpt lat="44.98266" lon="4.48721">
        <ele>701</ele>
        <time>2015-11-18T08:48:41Z</time>
      </trkpt>
      <trkpt lat="44.98256" lon="4.48723">
        <ele>701</ele>
        <time>2015-11-18T08:48:45Z</time>
      </trkpt>
      <trkpt lat="44.98249" lon="4.48723">
        <ele>701</ele>
        <time>2015-11-18T08:48:55Z</time>
      </trkpt>
      <trkpt lat="44.98241" lon="4.48729">
        <ele>701</ele>
        <time>2015-11-18T08:49:01Z</time>
      </trkpt>
      <trkpt lat="44.98235" lon="4.4873">
        <ele>701</ele>
        <time>2015-11-18T08:49:05Z</time>
      </trkpt>
      <trkpt lat="44.98227" lon="4.48728">
        <ele>701</ele>
        <time>2015-11-18T08:49:09Z</time>
      </trkpt>
      <trkpt lat="44.98219" lon="4.48732">
        <ele>700</ele>
        <time>2015-11-18T08:49:15Z</time>
      </trkpt>
      <trkpt lat="44.98211" lon="4.48731">
        <ele>700</ele>
        <time>2015-11-18T08:49:23Z</time>
      </trkpt>
      <trkpt lat="44.98204" lon="4.48735">
        <ele>700</ele>
        <time>2015-11-18T08:49:28Z</time>
      </trkpt>
      <trkpt lat="44.98199" lon="4.4873">
        <ele>700</ele>
        <time>2015-11-18T08:49:31Z</time>
      </trkpt>
      <trkpt lat="44.98191" lon="4.4872">
        <ele>700</ele>
        <time>2015-11-18T08:49:36Z</time>
      </trkpt>
      <trkpt lat="44.98183" lon="4.4872">
        <ele>700</ele>
        <time>2015-11-18T08:49:45Z</time>
      </trkpt>
      <trkpt lat="44.98177" lon="4.48717">
        <ele>700</ele>
        <time>2015-11-18T08:49:49Z</time>
      </trkpt>
      <trkpt lat="44.9817" lon="4.48707">
        <ele>699</ele>
        <time>2015-11-18T08:49:54Z</time>
      </trkpt>
      <trkpt lat="44.98162" lon="4.48701">
        <ele>699</ele>
        <time>2015-11-18T08:49:59Z</time>
      </trkpt>
      <trkpt lat="44.98167" lon="4.48695">
        <ele>699</ele>
        <time>2015-11-18T08:50:19Z</time>
      </trkpt>
      <trkpt lat="44.98171" lon="4.48685">
        <ele>700</ele>
        <time>2015-11-18T08:50:23Z</time>
      </trkpt>
      <trkpt lat="44.98171" lon="4.48668">
        <ele>701</ele>
        <time>2015-11-18T08:50:28Z</time>
      </trkpt>
      <trkpt lat="44.98161" lon="4.48659">
        <ele>701</ele>
        <time>2015-11-18T08:50:31Z</time>
      </trkpt>
      <trkpt lat="44.98167" lon="4.4865">
        <ele>702</ele>
        <time>2015-11-18T08:50:37Z</time>
      </trkpt>
      <trkpt lat="44.98171" lon="4.4864">
        <ele>702</ele>
        <time>2015-11-18T08:50:41Z</time>
      </trkpt>
      <trkpt lat="44.98167" lon="4.48623">
        <ele>702</ele>
        <time>2015-11-18T08:50:46Z</time>
      </trkpt>
      <trkpt lat="44.9817" lon="4.48614">
        <ele>702</ele>
        <time>2015-11-18T08:50:49Z</time>
      </trkpt>
      <trkpt lat="44.98173" lon="4.48601">
        <ele>702</ele>
        <time>2015-11-18T08:50:53Z</time>
      </trkpt>
      <trkpt lat="44.98171" lon="4.48593">
        <ele>702</ele>
        <time>2015-11-18T08:50:56Z</time>
      </trkpt>
      <trkpt lat="44.98174" lon="4.48578">
        <ele>702</ele>
        <time>2015-11-18T08:51:01Z</time>
      </trkpt>
      <trkpt lat="44.98171" lon="4.48566">
        <ele>702</ele>
        <time>2015-11-18T08:51:07Z</time>
      </trkpt>
      <trkpt lat="44.98167" lon="4.48557">
        <ele>702</ele>
        <time>2015-11-18T08:51:11Z</time>
      </trkpt>
      <trkpt lat="44.98165" lon="4.48548">
        <ele>702</ele>
        <time>2015-11-18T08:51:15Z</time>
      </trkpt>
      <trkpt lat="44.98162" lon="4.48533">
        <ele>702</ele>
        <time>2015-11-18T08:51:19Z</time>
      </trkpt>
      <trkpt lat="44.98169" lon="4.48521">
        <ele>702</ele>
        <time>2015-11-18T08:51:24Z</time>
      </trkpt>
      <trkpt lat="44.98175" lon="4.48513">
        <ele>702</ele>
        <time>2015-11-18T08:51:36Z</time>
      </trkpt>
      <trkpt lat="44.98179" lon="4.48509">
        <ele>702</ele>
        <time>2015-11-18T08:51:41Z</time>
      </trkpt>
      <trkpt lat="44.98189" lon="4.48507">
        <ele>702</ele>
        <time>2015-11-18T08:51:45Z</time>
      </trkpt>
      <trkpt lat="44.98199" lon="4.48501">
        <ele>703</ele>
        <time>2015-11-18T08:51:49Z</time>
      </trkpt>
      <trkpt lat="44.98209" lon="4.48496">
        <ele>703</ele>
        <time>2015-11-18T08:51:53Z</time>
      </trkpt>
      <trkpt lat="44.98219" lon="4.4849">
        <ele>703</ele>
        <time>2015-11-18T08:51:56Z</time>
      </trkpt>
      <trkpt lat="44.98229" lon="4.48482">
        <ele>704</ele>
        <time>2015-11-18T08:52:01Z</time>
      </trkpt>
      <trkpt lat="44.98231" lon="4.48473">
        <ele>705</ele>
        <time>2015-11-18T08:52:05Z</time>
      </trkpt>
      <trkpt lat="44.98224" lon="4.48467">
        <ele>706</ele>
        <time>2015-11-18T08:52:09Z</time>
      </trkpt>
      <trkpt lat="44.98223" lon="4.48458">
        <ele>708</ele>
        <time>2015-11-18T08:52:35Z</time>
      </trkpt>
      <trkpt lat="44.98224" lon="4.48449">
        <ele>708</ele>
        <time>2015-11-18T08:52:39Z</time>
      </trkpt>
      <trkpt lat="44.98234" lon="4.4845">
        <ele>708</ele>
        <time>2015-11-18T08:52:43Z</time>
      </trkpt>
      <trkpt lat="44.98242" lon="4.48449">
        <ele>709</ele>
        <time>2015-11-18T08:52:47Z</time>
      </trkpt>
      <trkpt lat="44.9825" lon="4.48444">
        <ele>710</ele>
        <time>2015-11-18T08:52:55Z</time>
      </trkpt>
      <trkpt lat="44.98256" lon="4.48445">
        <ele>711</ele>
        <time>2015-11-18T08:52:59Z</time>
      </trkpt>
      <trkpt lat="44.98263" lon="4.48444">
        <ele>712</ele>
        <time>2015-11-18T08:53:03Z</time>
      </trkpt>
      <trkpt lat="44.9827" lon="4.48439">
        <ele>713</ele>
        <time>2015-11-18T08:53:07Z</time>
      </trkpt>
      <trkpt lat="44.98276" lon="4.48435">
        <ele>714</ele>
        <time>2015-11-18T08:53:11Z</time>
      </trkpt>
      <trkpt lat="44.98272" lon="4.48424">
        <ele>715</ele>
        <time>2015-11-18T08:53:17Z</time>
      </trkpt>
      <trkpt lat="44.98276" lon="4.48416">
        <ele>715</ele>
        <time>2015-11-18T08:53:21Z</time>
      </trkpt>
      <trkpt lat="44.98284" lon="4.48408">
        <ele>716</ele>
        <time>2015-11-18T08:53:25Z</time>
      </trkpt>
      <trkpt lat="44.98294" lon="4.48398">
        <ele>716</ele>
        <time>2015-11-18T08:53:28Z</time>
      </trkpt>
      <trkpt lat="44.98303" lon="4.4839">
        <ele>717</ele>
        <time>2015-11-18T08:53:33Z</time>
      </trkpt>
      <trkpt lat="44.98309" lon="4.48388">
        <ele>717</ele>
        <time>2015-11-18T08:53:38Z</time>
      </trkpt>
      <trkpt lat="44.9831" lon="4.4838">
        <ele>717</ele>
        <time>2015-11-18T08:53:43Z</time>
      </trkpt>
      <trkpt lat="44.9832" lon="4.48375">
        <ele>718</ele>
        <time>2015-11-18T08:53:47Z</time>
      </trkpt>
      <trkpt lat="44.98331" lon="4.4837">
        <ele>720</ele>
        <time>2015-11-18T08:53:51Z</time>
      </trkpt>
      <trkpt lat="44.98342" lon="4.48371">
        <ele>723</ele>
        <time>2015-11-18T08:53:56Z</time>
      </trkpt>
      <trkpt lat="44.98348" lon="4.48375">
        <ele>724</ele>
        <time>2015-11-18T08:53:59Z</time>
      </trkpt>
      <trkpt lat="44.98353" lon="4.48384">
        <ele>725</ele>
        <time>2015-11-18T08:54:04Z</time>
      </trkpt>
      <trkpt lat="44.98359" lon="4.48393">
        <ele>726</ele>
        <time>2015-11-18T08:54:15Z</time>
      </trkpt>
      <trkpt lat="44.98364" lon="4.48402">
        <ele>727</ele>
        <time>2015-11-18T08:54:25Z</time>
      </trkpt>
      <trkpt lat="44.98368" lon="4.48417">
        <ele>727</ele>
        <time>2015-11-18T08:54:29Z</time>
      </trkpt>
      <trkpt lat="44.98374" lon="4.48433">
        <ele>728</ele>
        <time>2015-11-18T08:54:33Z</time>
      </trkpt>
      <trkpt lat="44.98378" lon="4.48448">
        <ele>729</ele>
        <time>2015-11-18T08:54:37Z</time>
      </trkpt>
      <trkpt lat="44.98383" lon="4.48465">
        <ele>729</ele>
        <time>2015-11-18T08:54:42Z</time>
      </trkpt>
      <trkpt lat="44.98386" lon="4.48474">
        <ele>729</ele>
        <time>2015-11-18T08:54:46Z</time>
      </trkpt>
      <trkpt lat="44.9839" lon="4.48492">
        <ele>728</ele>
        <time>2015-11-18T08:54:51Z</time>
      </trkpt>
      <trkpt lat="44.98392" lon="4.48501">
        <ele>727</ele>
        <time>2015-11-18T08:54:54Z</time>
      </trkpt>
      <trkpt lat="44.98399" lon="4.48515">
        <ele>726</ele>
        <time>2015-11-18T08:54:59Z</time>
      </trkpt>
      <trkpt lat="44.98402" lon="4.48525">
        <ele>726</ele>
        <time>2015-11-18T08:55:05Z</time>
      </trkpt>
      <trkpt lat="44.98409" lon="4.48532">
        <ele>725</ele>
        <time>2015-11-18T08:55:10Z</time>
      </trkpt>
      <trkpt lat="44.98414" lon="4.48541">
        <ele>724</ele>
        <time>2015-11-18T08:55:14Z</time>
      </trkpt>
      <trkpt lat="44.98418" lon="4.48551">
        <ele>723</ele>
        <time>2015-11-18T08:55:19Z</time>
      </trkpt>
      <trkpt lat="44.98426" lon="4.48558">
        <ele>723</ele>
        <time>2015-11-18T08:55:25Z</time>
      </trkpt>
      <trkpt lat="44.98434" lon="4.48563">
        <ele>723</ele>
        <time>2015-11-18T08:55:29Z</time>
      </trkpt>
      <trkpt lat="44.98444" lon="4.48568">
        <ele>722</ele>
        <time>2015-11-18T08:55:34Z</time>
      </trkpt>
      <trkpt lat="44.98452" lon="4.4858">
        <ele>722</ele>
        <time>2015-11-18T08:55:39Z</time>
      </trkpt>
      <trkpt lat="44.98454" lon="4.48588">
        <ele>722</ele>
        <time>2015-11-18T08:55:42Z</time>
      </trkpt>
      <trkpt lat="44.98459" lon="4.48597">
        <ele>721</ele>
        <time>2015-11-18T08:55:46Z</time>
      </trkpt>
      <trkpt lat="44.98467" lon="4.48603">
        <ele>721</ele>
        <time>2015-11-18T08:55:50Z</time>
      </trkpt>
      <trkpt lat="44.98479" lon="4.48607">
        <ele>721</ele>
        <time>2015-11-18T08:55:55Z</time>
      </trkpt>
      <trkpt lat="44.98486" lon="4.4861">
        <ele>720</ele>
        <time>2015-11-18T08:55:59Z</time>
      </trkpt>
      <trkpt lat="44.98493" lon="4.48616">
        <ele>719</ele>
        <time>2015-11-18T08:56:03Z</time>
      </trkpt>
      <trkpt lat="44.98505" lon="4.48618">
        <ele>719</ele>
        <time>2015-11-18T08:56:08Z</time>
      </trkpt>
      <trkpt lat="44.98512" lon="4.48618">
        <ele>720</ele>
        <time>2015-11-18T08:56:13Z</time>
      </trkpt>
      <trkpt lat="44.98521" lon="4.48621">
        <ele>720</ele>
        <time>2015-11-18T08:56:19Z</time>
      </trkpt>
      <trkpt lat="44.98529" lon="4.48621">
        <ele>719</ele>
        <time>2015-11-18T08:56:23Z</time>
      </trkpt>
      <trkpt lat="44.98536" lon="4.4862">
        <ele>719</ele>
        <time>2015-11-18T08:56:26Z</time>
      </trkpt>
      <trkpt lat="44.98546" lon="4.48614">
        <ele>717</ele>
        <time>2015-11-18T08:56:31Z</time>
      </trkpt>
      <trkpt lat="44.98547" lon="4.48612">
        <ele>716</ele>
        <time>2015-11-18T08:56:41Z</time>
      </trkpt>
      <trkpt lat="44.98556" lon="4.48595">
        <ele>713</ele>
        <time>2015-11-18T08:56:49Z</time>
      </trkpt>
      <trkpt lat="44.98561" lon="4.48596">
        <ele>713</ele>
        <time>2015-11-18T08:56:51Z</time>
      </trkpt>
      <trkpt lat="44.98577" lon="4.486">
        <ele>712</ele>
        <time>2015-11-18T08:56:56Z</time>
      </trkpt>
      <trkpt lat="44.98586" lon="4.48603">
        <ele>711</ele>
        <time>2015-11-18T08:57:00Z</time>
      </trkpt>
      <trkpt lat="44.986" lon="4.48607">
        <ele>709</ele>
        <time>2015-11-18T08:57:05Z</time>
      </trkpt>
      <trkpt lat="44.98613" lon="4.48608">
        <ele>708</ele>
        <time>2015-11-18T08:57:09Z</time>
      </trkpt>
      <trkpt lat="44.98624" lon="4.48609">
        <ele>707</ele>
        <time>2015-11-18T08:57:13Z</time>
      </trkpt>
      <trkpt lat="44.98631" lon="4.48611">
        <ele>707</ele>
        <time>2015-11-18T08:57:16Z</time>
      </trkpt>
      <trkpt lat="44.98637" lon="4.48614">
        <ele>707</ele>
        <time>2015-11-18T08:57:19Z</time>
      </trkpt>
      <trkpt lat="44.98644" lon="4.48611">
        <ele>706</ele>
        <time>2015-11-18T08:57:25Z</time>
      </trkpt>
      <trkpt lat="44.98652" lon="4.48613">
        <ele>705</ele>
        <time>2015-11-18T08:57:33Z</time>
      </trkpt>
      <trkpt lat="44.98658" lon="4.48619">
        <ele>705</ele>
        <time>2015-11-18T08:57:36Z</time>
      </trkpt>
      <trkpt lat="44.98669" lon="4.4862">
        <ele>704</ele>
        <time>2015-11-18T08:57:40Z</time>
      </trkpt>
      <trkpt lat="44.98678" lon="4.48623">
        <ele>702</ele>
        <time>2015-11-18T08:57:43Z</time>
      </trkpt>
      <trkpt lat="44.98687" lon="4.48622">
        <ele>701</ele>
        <time>2015-11-18T08:57:47Z</time>
      </trkpt>
      <trkpt lat="44.987" lon="4.48622">
        <ele>700</ele>
        <time>2015-11-18T08:57:52Z</time>
      </trkpt>
      <trkpt lat="44.98707" lon="4.4862">
        <ele>700</ele>
        <time>2015-11-18T08:57:55Z</time>
      </trkpt>
      <trkpt lat="44.98714" lon="4.48615">
        <ele>698</ele>
        <time>2015-11-18T08:57:59Z</time>
      </trkpt>
      <trkpt lat="44.98722" lon="4.48614">
        <ele>686</ele>
        <time>2015-11-18T08:58:09Z</time>
      </trkpt>
      <trkpt lat="44.98725" lon="4.48611">
        <ele>684</ele>
        <time>2015-11-18T08:58:19Z</time>
      </trkpt>
      <trkpt lat="44.98736" lon="4.48608">
        <ele>682</ele>
        <time>2015-11-18T08:58:22Z</time>
      </trkpt>
      <trkpt lat="44.98744" lon="4.48605">
        <ele>680</ele>
        <time>2015-11-18T08:58:39Z</time>
      </trkpt>
      <trkpt lat="44.98746" lon="4.48601">
        <ele>680</ele>
        <time>2015-11-18T08:58:42Z</time>
      </trkpt>
      <trkpt lat="44.98755" lon="4.48591">
        <ele>678</ele>
        <time>2015-11-18T08:58:46Z</time>
      </trkpt>
      <trkpt lat="44.98761" lon="4.48582">
        <ele>677</ele>
        <time>2015-11-18T08:59:06Z</time>
      </trkpt>
      <trkpt lat="44.98765" lon="4.48578">
        <ele>676</ele>
        <time>2015-11-18T08:59:22Z</time>
      </trkpt>
      <trkpt lat="44.98766" lon="4.48564">
        <ele>676</ele>
        <time>2015-11-18T08:59:27Z</time>
      </trkpt>
      <trkpt lat="44.98769" lon="4.48555">
        <ele>675</ele>
        <time>2015-11-18T08:59:31Z</time>
      </trkpt>
      <trkpt lat="44.98777" lon="4.48548">
        <ele>673</ele>
        <time>2015-11-18T08:59:35Z</time>
      </trkpt>
      <trkpt lat="44.98784" lon="4.48545">
        <ele>673</ele>
        <time>2015-11-18T08:59:40Z</time>
      </trkpt>
      <trkpt lat="44.98789" lon="4.48537">
        <ele>672</ele>
        <time>2015-11-18T08:59:43Z</time>
      </trkpt>
      <trkpt lat="44.98789" lon="4.48526">
        <ele>671</ele>
        <time>2015-11-18T08:59:49Z</time>
      </trkpt>
      <trkpt lat="44.98789" lon="4.48513">
        <ele>670</ele>
        <time>2015-11-18T08:59:54Z</time>
      </trkpt>
      <trkpt lat="44.98793" lon="4.485">
        <ele>668</ele>
        <time>2015-11-18T08:59:58Z</time>
      </trkpt>
      <trkpt lat="44.98786" lon="4.48491">
        <ele>666</ele>
        <time>2015-11-18T09:00:01Z</time>
      </trkpt>
      <trkpt lat="44.98788" lon="4.48484">
        <ele>666</ele>
        <time>2015-11-18T09:00:05Z</time>
      </trkpt>
      <trkpt lat="44.98793" lon="4.48471">
        <ele>665</ele>
        <time>2015-11-18T09:00:09Z</time>
      </trkpt>
      <trkpt lat="44.98795" lon="4.48458">
        <ele>664</ele>
        <time>2015-11-18T09:00:13Z</time>
      </trkpt>
      <trkpt lat="44.988" lon="4.48448">
        <ele>663</ele>
        <time>2015-11-18T09:00:19Z</time>
      </trkpt>
      <trkpt lat="44.98804" lon="4.4844">
        <ele>662</ele>
        <time>2015-11-18T09:00:23Z</time>
      </trkpt>
      <trkpt lat="44.98812" lon="4.48436">
        <ele>659</ele>
        <time>2015-11-18T09:00:31Z</time>
      </trkpt>
      <trkpt lat="44.98825" lon="4.48427">
        <ele>656</ele>
        <time>2015-11-18T09:00:36Z</time>
      </trkpt>
      <trkpt lat="44.98829" lon="4.48416">
        <ele>651</ele>
        <time>2015-11-18T09:00:43Z</time>
      </trkpt>
      <trkpt lat="44.9884" lon="4.484">
        <ele>648</ele>
        <time>2015-11-18T09:00:47Z</time>
      </trkpt>
      <trkpt lat="44.98842" lon="4.48389">
        <ele>646</ele>
        <time>2015-11-18T09:00:51Z</time>
      </trkpt>
      <trkpt lat="44.98845" lon="4.48378">
        <ele>644</ele>
        <time>2015-11-18T09:00:55Z</time>
      </trkpt>
      <trkpt lat="44.98843" lon="4.48366">
        <ele>641</ele>
        <time>2015-11-18T09:01:00Z</time>
      </trkpt>
      <trkpt lat="44.98843" lon="4.48355">
        <ele>639</ele>
        <time>2015-11-18T09:01:06Z</time>
      </trkpt>
      <trkpt lat="44.98845" lon="4.48344">
        <ele>637</ele>
        <time>2015-11-18T09:01:11Z</time>
      </trkpt>
      <trkpt lat="44.98847" lon="4.48336">
        <ele>634</ele>
        <time>2015-11-18T09:01:17Z</time>
      </trkpt>
      <trkpt lat="44.98853" lon="4.48327">
        <ele>632</ele>
        <time>2015-11-18T09:01:21Z</time>
      </trkpt>
      <trkpt lat="44.98848" lon="4.48317">
        <ele>630</ele>
        <time>2015-11-18T09:01:24Z</time>
      </trkpt>
      <trkpt lat="44.98851" lon="4.48304">
        <ele>628</ele>
        <time>2015-11-18T09:01:27Z</time>
      </trkpt>
      <trkpt lat="44.98853" lon="4.4829">
        <ele>627</ele>
        <time>2015-11-18T09:01:30Z</time>
      </trkpt>
      <trkpt lat="44.98855" lon="4.48276">
        <ele>625</ele>
        <time>2015-11-18T09:01:34Z</time>
      </trkpt>
      <trkpt lat="44.98857" lon="4.48267">
        <ele>623</ele>
        <time>2015-11-18T09:01:38Z</time>
      </trkpt>
      <trkpt lat="44.98865" lon="4.4826">
        <ele>621</ele>
        <time>2015-11-18T09:01:42Z</time>
      </trkpt>
      <trkpt lat="44.98869" lon="4.4825">
        <ele>620</ele>
        <time>2015-11-18T09:01:46Z</time>
      </trkpt>
      <trkpt lat="44.98868" lon="4.48241">
        <ele>618</ele>
        <time>2015-11-18T09:01:50Z</time>
      </trkpt>
      <trkpt lat="44.98862" lon="4.48225">
        <ele>616</ele>
        <time>2015-11-18T09:01:55Z</time>
      </trkpt>
      <trkpt lat="44.98868" lon="4.48212">
        <ele>614</ele>
        <time>2015-11-18T09:01:59Z</time>
      </trkpt>
      <trkpt lat="44.98866" lon="4.48196">
        <ele>612</ele>
        <time>2015-11-18T09:02:03Z</time>
      </trkpt>
      <trkpt lat="44.98866" lon="4.48187">
        <ele>610</ele>
        <time>2015-11-18T09:02:06Z</time>
      </trkpt>
      <trkpt lat="44.98863" lon="4.48176">
        <ele>608</ele>
        <time>2015-11-18T09:02:10Z</time>
      </trkpt>
      <trkpt lat="44.98868" lon="4.4816">
        <ele>606</ele>
        <time>2015-11-18T09:02:15Z</time>
      </trkpt>
      <trkpt lat="44.98875" lon="4.4815">
        <ele>604</ele>
        <time>2015-11-18T09:02:19Z</time>
      </trkpt>
      <trkpt lat="44.98878" lon="4.48137">
        <ele>602</ele>
        <time>2015-11-18T09:02:24Z</time>
      </trkpt>
      <trkpt lat="44.98888" lon="4.48125">
        <ele>600</ele>
        <time>2015-11-18T09:02:28Z</time>
      </trkpt>
      <trkpt lat="44.98883" lon="4.48116">
        <ele>598</ele>
        <time>2015-11-18T09:02:32Z</time>
      </trkpt>
      <trkpt lat="44.98879" lon="4.48106">
        <ele>595</ele>
        <time>2015-11-18T09:02:36Z</time>
      </trkpt>
      <trkpt lat="44.98874" lon="4.4809">
        <ele>593</ele>
        <time>2015-11-18T09:02:40Z</time>
      </trkpt>
      <trkpt lat="44.98869" lon="4.48072">
        <ele>591</ele>
        <time>2015-11-18T09:02:45Z</time>
      </trkpt>
      <trkpt lat="44.98867" lon="4.48062">
        <ele>590</ele>
        <time>2015-11-18T09:02:48Z</time>
      </trkpt>
      <trkpt lat="44.98872" lon="4.48052">
        <ele>588</ele>
        <time>2015-11-18T09:02:54Z</time>
      </trkpt>
      <trkpt lat="44.98876" lon="4.48043">
        <ele>586</ele>
        <time>2015-11-18T09:03:05Z</time>
      </trkpt>
      <trkpt lat="44.98882" lon="4.48048">
        <ele>588</ele>
        <time>2015-11-18T09:03:22Z</time>
      </trkpt>
      <trkpt lat="44.98908" lon="4.48074">
        <ele>585</ele>
        <time>2015-11-18T09:03:36Z</time>
      </trkpt>
      <trkpt lat="44.98912" lon="4.48082">
        <ele>584</ele>
        <time>2015-11-18T09:03:40Z</time>
      </trkpt>
      <trkpt lat="44.98918" lon="4.48088">
        <ele>583</ele>
        <time>2015-11-18T09:03:46Z</time>
      </trkpt>
      <trkpt lat="44.98926" lon="4.48095">
        <ele>580</ele>
        <time>2015-11-18T09:03:59Z</time>
      </trkpt>
      <trkpt lat="44.9893" lon="4.48105">
        <ele>578</ele>
        <time>2015-11-18T09:04:10Z</time>
      </trkpt>
      <trkpt lat="44.98931" lon="4.48116">
        <ele>577</ele>
        <time>2015-11-18T09:04:23Z</time>
      </trkpt>
      <trkpt lat="44.98933" lon="4.48128">
        <ele>576</ele>
        <time>2015-11-18T09:04:38Z</time>
      </trkpt>
      <trkpt lat="44.98927" lon="4.48134">
        <ele>575</ele>
        <time>2015-11-18T09:04:45Z</time>
      </trkpt>
      <trkpt lat="44.98917" lon="4.48155">
        <ele>575</ele>
        <time>2015-11-18T09:04:48Z</time>
      </trkpt>
      <trkpt lat="44.9892" lon="4.48142">
        <ele>574</ele>
        <time>2015-11-18T09:04:53Z</time>
      </trkpt>
      <trkpt lat="44.98924" lon="4.48125">
        <ele>573</ele>
        <time>2015-11-18T09:04:58Z</time>
      </trkpt>
      <trkpt lat="44.98924" lon="4.48115">
        <ele>572</ele>
        <time>2015-11-18T09:05:01Z</time>
      </trkpt>
      <trkpt lat="44.98927" lon="4.48104">
        <ele>572</ele>
        <time>2015-11-18T09:05:07Z</time>
      </trkpt>
      <trkpt lat="44.98935" lon="4.481">
        <ele>572</ele>
        <time>2015-11-18T09:05:11Z</time>
      </trkpt>
      <trkpt lat="44.98943" lon="4.48103">
        <ele>572</ele>
        <time>2015-11-18T09:05:15Z</time>
      </trkpt>
      <trkpt lat="44.9895" lon="4.48106">
        <ele>577</ele>
        <time>2015-11-18T09:05:27Z</time>
      </trkpt>
      <trkpt lat="44.9896" lon="4.48105">
        <ele>577</ele>
        <time>2015-11-18T09:05:31Z</time>
      </trkpt>
      <trkpt lat="44.98967" lon="4.48098">
        <ele>577</ele>
        <time>2015-11-18T09:05:38Z</time>
      </trkpt>
      <trkpt lat="44.9897" lon="4.48084">
        <ele>578</ele>
        <time>2015-11-18T09:05:43Z</time>
      </trkpt>
      <trkpt lat="44.98974" lon="4.48074">
        <ele>579</ele>
        <time>2015-11-18T09:05:48Z</time>
      </trkpt>
      <trkpt lat="44.98972" lon="4.48062">
        <ele>579</ele>
        <time>2015-11-18T09:05:53Z</time>
      </trkpt>
      <trkpt lat="44.98973" lon="4.4805">
        <ele>579</ele>
        <time>2015-11-18T09:05:57Z</time>
      </trkpt>
      <trkpt lat="44.98971" lon="4.48038">
        <ele>578</ele>
        <time>2015-11-18T09:06:01Z</time>
      </trkpt>
      <trkpt lat="44.9897" lon="4.48026">
        <ele>578</ele>
        <time>2015-11-18T09:06:06Z</time>
      </trkpt>
      <trkpt lat="44.9897" lon="4.48014">
        <ele>577</ele>
        <time>2015-11-18T09:06:14Z</time>
      </trkpt>
      <trkpt lat="44.98974" lon="4.48003">
        <ele>578</ele>
        <time>2015-11-18T09:06:24Z</time>
      </trkpt>
      <trkpt lat="44.98982" lon="4.48006">
        <ele>584</ele>
        <time>2015-11-18T09:06:56Z</time>
      </trkpt>
      <trkpt lat="44.98991" lon="4.48008">
        <ele>587</ele>
        <time>2015-11-18T09:07:07Z</time>
      </trkpt>
      <trkpt lat="44.98997" lon="4.48016">
        <ele>589</ele>
        <time>2015-11-18T09:07:13Z</time>
      </trkpt>
      <trkpt lat="44.99" lon="4.48026">
        <ele>590</ele>
        <time>2015-11-18T09:07:19Z</time>
      </trkpt>
      <trkpt lat="44.99005" lon="4.48034">
        <ele>592</ele>
        <time>2015-11-18T09:07:26Z</time>
      </trkpt>
      <trkpt lat="44.9901" lon="4.48044">
        <ele>593</ele>
        <time>2015-11-18T09:07:33Z</time>
      </trkpt>
      <trkpt lat="44.99016" lon="4.48053">
        <ele>594</ele>
        <time>2015-11-18T09:07:40Z</time>
      </trkpt>
      <trkpt lat="44.99021" lon="4.4806">
        <ele>595</ele>
        <time>2015-11-18T09:07:46Z</time>
      </trkpt>
      <trkpt lat="44.99029" lon="4.48066">
        <ele>597</ele>
        <time>2015-11-18T09:07:54Z</time>
      </trkpt>
      <trkpt lat="44.99032" lon="4.48079">
        <ele>597</ele>
        <time>2015-11-18T09:07:59Z</time>
      </trkpt>
      <trkpt lat="44.99034" lon="4.48087">
        <ele>598</ele>
        <time>2015-11-18T09:08:02Z</time>
      </trkpt>
      <trkpt lat="44.99039" lon="4.48096">
        <ele>598</ele>
        <time>2015-11-18T09:08:05Z</time>
      </trkpt>
      <trkpt lat="44.99045" lon="4.48106">
        <ele>598</ele>
        <time>2015-11-18T09:08:09Z</time>
      </trkpt>
      <trkpt lat="44.99049" lon="4.48116">
        <ele>599</ele>
        <time>2015-11-18T09:08:12Z</time>
      </trkpt>
      <trkpt lat="44.99055" lon="4.48127">
        <ele>600</ele>
        <time>2015-11-18T09:08:16Z</time>
      </trkpt>
      <trkpt lat="44.99062" lon="4.48137">
        <ele>601</ele>
        <time>2015-11-18T09:08:21Z</time>
      </trkpt>
      <trkpt lat="44.99065" lon="4.48143">
        <ele>602</ele>
        <time>2015-11-18T09:08:24Z</time>
      </trkpt>
      <trkpt lat="44.9907" lon="4.48152">
        <ele>603</ele>
        <time>2015-11-18T09:08:28Z</time>
      </trkpt>
      <trkpt lat="44.99077" lon="4.48163">
        <ele>604</ele>
        <time>2015-11-18T09:08:33Z</time>
      </trkpt>
      <trkpt lat="44.99081" lon="4.48175">
        <ele>605</ele>
        <time>2015-11-18T09:08:38Z</time>
      </trkpt>
      <trkpt lat="44.99085" lon="4.48186">
        <ele>605</ele>
        <time>2015-11-18T09:08:42Z</time>
      </trkpt>
      <trkpt lat="44.99091" lon="4.48196">
        <ele>606</ele>
        <time>2015-11-18T09:08:46Z</time>
      </trkpt>
      <trkpt lat="44.99096" lon="4.48203">
        <ele>607</ele>
        <time>2015-11-18T09:08:58Z</time>
      </trkpt>
      <trkpt lat="44.99103" lon="4.482">
        <ele>608</ele>
        <time>2015-11-18T09:09:04Z</time>
      </trkpt>
      <trkpt lat="44.99111" lon="4.48201">
        <ele>608</ele>
        <time>2015-11-18T09:09:09Z</time>
      </trkpt>
      <trkpt lat="44.99118" lon="4.48202">
        <ele>609</ele>
        <time>2015-11-18T09:09:16Z</time>
      </trkpt>
      <trkpt lat="44.99125" lon="4.48196">
        <ele>609</ele>
        <time>2015-11-18T09:09:20Z</time>
      </trkpt>
      <trkpt lat="44.99134" lon="4.48189">
        <ele>610</ele>
        <time>2015-11-18T09:09:23Z</time>
      </trkpt>
      <trkpt lat="44.99143" lon="4.48186">
        <ele>610</ele>
        <time>2015-11-18T09:09:29Z</time>
      </trkpt>
      <trkpt lat="44.99155" lon="4.48183">
        <ele>611</ele>
        <time>2015-11-18T09:09:34Z</time>
      </trkpt>
      <trkpt lat="44.99163" lon="4.48186">
        <ele>614</ele>
        <time>2015-11-18T09:09:48Z</time>
      </trkpt>
      <trkpt lat="44.99164" lon="4.48174">
        <ele>615</ele>
        <time>2015-11-18T09:10:02Z</time>
      </trkpt>
      <trkpt lat="44.9917" lon="4.48167">
        <ele>615</ele>
        <time>2015-11-18T09:10:15Z</time>
      </trkpt>
      <trkpt lat="44.99189" lon="4.48154">
        <ele>615</ele>
        <time>2015-11-18T09:10:19Z</time>
      </trkpt>
      <trkpt lat="44.99199" lon="4.48146">
        <ele>616</ele>
        <time>2015-11-18T09:10:24Z</time>
      </trkpt>
      <trkpt lat="44.99215" lon="4.48135">
        <ele>617</ele>
        <time>2015-11-18T09:10:28Z</time>
      </trkpt>
      <trkpt lat="44.99225" lon="4.48123">
        <ele>618</ele>
        <time>2015-11-18T09:10:32Z</time>
      </trkpt>
      <trkpt lat="44.99232" lon="4.48117">
        <ele>620</ele>
        <time>2015-11-18T09:10:38Z</time>
      </trkpt>
      <trkpt lat="44.99247" lon="4.48112">
        <ele>621</ele>
        <time>2015-11-18T09:10:42Z</time>
      </trkpt>
      <trkpt lat="44.99258" lon="4.48111">
        <ele>622</ele>
        <time>2015-11-18T09:10:45Z</time>
      </trkpt>
      <trkpt lat="44.99265" lon="4.48112">
        <ele>624</ele>
        <time>2015-11-18T09:10:49Z</time>
      </trkpt>
      <trkpt lat="44.9927" lon="4.48123">
        <ele>624</ele>
        <time>2015-11-18T09:10:53Z</time>
      </trkpt>
      <trkpt lat="44.99272" lon="4.48135">
        <ele>625</ele>
        <time>2015-11-18T09:10:57Z</time>
      </trkpt>
      <trkpt lat="44.99273" lon="4.48146">
        <ele>625</ele>
        <time>2015-11-18T09:11:00Z</time>
      </trkpt>
      <trkpt lat="44.99275" lon="4.48155">
        <ele>626</ele>
        <time>2015-11-18T09:11:04Z</time>
      </trkpt>
      <trkpt lat="44.99274" lon="4.48166">
        <ele>628</ele>
        <time>2015-11-18T09:11:11Z</time>
      </trkpt>
      <trkpt lat="44.99277" lon="4.48178">
        <ele>630</ele>
        <time>2015-11-18T09:11:19Z</time>
      </trkpt>
      <trkpt lat="44.99277" lon="4.4819">
        <ele>631</ele>
        <time>2015-11-18T09:11:27Z</time>
      </trkpt>
      <trkpt lat="44.99277" lon="4.48201">
        <ele>632</ele>
        <time>2015-11-18T09:11:32Z</time>
      </trkpt>
      <trkpt lat="44.99279" lon="4.48213">
        <ele>633</ele>
        <time>2015-11-18T09:11:39Z</time>
      </trkpt>
      <trkpt lat="44.9928" lon="4.48215">
        <ele>633</ele>
        <time>2015-11-18T09:11:48Z</time>
      </trkpt>
      <trkpt lat="44.99274" lon="4.48231">
        <ele>634</ele>
        <time>2015-11-18T09:11:52Z</time>
      </trkpt>
      <trkpt lat="44.9927" lon="4.48247">
        <ele>634</ele>
        <time>2015-11-18T09:11:57Z</time>
      </trkpt>
      <trkpt lat="44.99265" lon="4.48262">
        <ele>634</ele>
        <time>2015-11-18T09:12:01Z</time>
      </trkpt>
      <trkpt lat="44.99263" lon="4.48273">
        <ele>635</ele>
        <time>2015-11-18T09:12:11Z</time>
      </trkpt>
      <trkpt lat="44.9926" lon="4.48284">
        <ele>636</ele>
        <time>2015-11-18T09:12:24Z</time>
      </trkpt>
      <trkpt lat="44.9926" lon="4.48297">
        <ele>635</ele>
        <time>2015-11-18T09:12:32Z</time>
      </trkpt>
      <trkpt lat="44.99257" lon="4.48309">
        <ele>635</ele>
        <time>2015-11-18T09:12:38Z</time>
      </trkpt>
      <trkpt lat="44.99254" lon="4.48317">
        <ele>635</ele>
        <time>2015-11-18T09:12:42Z</time>
      </trkpt>
      <trkpt lat="44.99256" lon="4.48327">
        <ele>635</ele>
        <time>2015-11-18T09:12:50Z</time>
      </trkpt>
      <trkpt lat="44.9926" lon="4.48336">
        <ele>634</ele>
        <time>2015-11-18T09:12:55Z</time>
      </trkpt>
      <trkpt lat="44.99262" lon="4.4835">
        <ele>635</ele>
        <time>2015-11-18T09:13:00Z</time>
      </trkpt>
      <trkpt lat="44.99262" lon="4.48363">
        <ele>635</ele>
        <time>2015-11-18T09:13:08Z</time>
      </trkpt>
      <trkpt lat="44.99262" lon="4.48373">
        <ele>636</ele>
        <time>2015-11-18T09:13:17Z</time>
      </trkpt>
      <trkpt lat="44.99263" lon="4.48381">
        <ele>637</ele>
        <time>2015-11-18T09:13:28Z</time>
      </trkpt>
      <trkpt lat="44.99268" lon="4.48384">
        <ele>637</ele>
        <time>2015-11-18T09:13:33Z</time>
      </trkpt>
      <trkpt lat="44.99279" lon="4.48399">
        <ele>638</ele>
        <time>2015-11-18T09:13:37Z</time>
      </trkpt>
      <trkpt lat="44.99286" lon="4.48404">
        <ele>638</ele>
        <time>2015-11-18T09:13:42Z</time>
      </trkpt>
      <trkpt lat="44.99293" lon="4.48412">
        <ele>638</ele>
        <time>2015-11-18T09:13:51Z</time>
      </trkpt>
      <trkpt lat="44.99301" lon="4.48414">
        <ele>637</ele>
        <time>2015-11-18T09:13:57Z</time>
      </trkpt>
      <trkpt lat="44.9931" lon="4.48417">
        <ele>638</ele>
        <time>2015-11-18T09:14:02Z</time>
      </trkpt>
      <trkpt lat="44.99319" lon="4.48419">
        <ele>637</ele>
        <time>2015-11-18T09:14:09Z</time>
      </trkpt>
      <trkpt lat="44.99326" lon="4.48424">
        <ele>637</ele>
        <time>2015-11-18T09:14:13Z</time>
      </trkpt>
      <trkpt lat="44.99336" lon="4.48426">
        <ele>637</ele>
        <time>2015-11-18T09:14:18Z</time>
      </trkpt>
      <trkpt lat="44.99347" lon="4.48429">
        <ele>637</ele>
        <time>2015-11-18T09:14:22Z</time>
      </trkpt>
      <trkpt lat="44.99355" lon="4.48431">
        <ele>637</ele>
        <time>2015-11-18T09:14:26Z</time>
      </trkpt>
      <trkpt lat="44.99362" lon="4.48436">
        <ele>636</ele>
        <time>2015-11-18T09:14:31Z</time>
      </trkpt>
      <trkpt lat="44.99368" lon="4.48447">
        <ele>636</ele>
        <time>2015-11-18T09:14:36Z</time>
      </trkpt>
      <trkpt lat="44.99376" lon="4.48458">
        <ele>637</ele>
        <time>2015-11-18T09:14:41Z</time>
      </trkpt>
      <trkpt lat="44.99382" lon="4.48464">
        <ele>637</ele>
        <time>2015-11-18T09:14:45Z</time>
      </trkpt>
      <trkpt lat="44.99387" lon="4.48471">
        <ele>638</ele>
        <time>2015-11-18T09:14:51Z</time>
      </trkpt>
      <trkpt lat="44.99392" lon="4.48472">
        <ele>638</ele>
        <time>2015-11-18T09:14:54Z</time>
      </trkpt>
      <trkpt lat="44.994" lon="4.48476">
        <ele>638</ele>
        <time>2015-11-18T09:14:58Z</time>
      </trkpt>
      <trkpt lat="44.99407" lon="4.48476">
        <ele>638</ele>
        <time>2015-11-18T09:15:01Z</time>
      </trkpt>
      <trkpt lat="44.99418" lon="4.48475">
        <ele>639</ele>
        <time>2015-11-18T09:15:06Z</time>
      </trkpt>
      <trkpt lat="44.99424" lon="4.48475">
        <ele>639</ele>
        <time>2015-11-18T09:15:10Z</time>
      </trkpt>
      <trkpt lat="44.99433" lon="4.48472">
        <ele>640</ele>
        <time>2015-11-18T09:15:17Z</time>
      </trkpt>
      <trkpt lat="44.99438" lon="4.48467">
        <ele>641</ele>
        <time>2015-11-18T09:15:28Z</time>
      </trkpt>
      <trkpt lat="44.99442" lon="4.48456">
        <ele>641</ele>
        <time>2015-11-18T09:15:34Z</time>
      </trkpt>
      <trkpt lat="44.99452" lon="4.48459">
        <ele>644</ele>
        <time>2015-11-18T09:15:38Z</time>
      </trkpt>
      <trkpt lat="44.99452" lon="4.48449">
        <ele>644</ele>
        <time>2015-11-18T09:15:46Z</time>
      </trkpt>
      <trkpt lat="44.99456" lon="4.48439">
        <ele>645</ele>
        <time>2015-11-18T09:15:57Z</time>
      </trkpt>
      <trkpt lat="44.99463" lon="4.48439">
        <ele>645</ele>
        <time>2015-11-18T09:16:03Z</time>
      </trkpt>
      <trkpt lat="44.99474" lon="4.48436">
        <ele>646</ele>
        <time>2015-11-18T09:16:07Z</time>
      </trkpt>
      <trkpt lat="44.99478" lon="4.48444">
        <ele>648</ele>
        <time>2015-11-18T09:16:26Z</time>
      </trkpt>
      <trkpt lat="44.99486" lon="4.48442">
        <ele>652</ele>
        <time>2015-11-18T09:16:38Z</time>
      </trkpt>
      <trkpt lat="44.99491" lon="4.48443">
        <ele>652</ele>
        <time>2015-11-18T09:16:43Z</time>
      </trkpt>
      <trkpt lat="44.99506" lon="4.48451">
        <ele>656</ele>
        <time>2015-11-18T09:16:47Z</time>
      </trkpt>
      <trkpt lat="44.99513" lon="4.48456">
        <ele>657</ele>
        <time>2015-11-18T09:16:51Z</time>
      </trkpt>
      <trkpt lat="44.99516" lon="4.48458">
        <ele>659</ele>
        <time>2015-11-18T09:16:58Z</time>
      </trkpt>
      <trkpt lat="44.99522" lon="4.48473">
        <ele>661</ele>
        <time>2015-11-18T09:17:02Z</time>
      </trkpt>
      <trkpt lat="44.99526" lon="4.48477">
        <ele>662</ele>
        <time>2015-11-18T09:17:06Z</time>
      </trkpt>
      <trkpt lat="44.99534" lon="4.4848">
        <ele>662</ele>
        <time>2015-11-18T09:17:10Z</time>
      </trkpt>
      <trkpt lat="44.99542" lon="4.48489">
        <ele>663</ele>
        <time>2015-11-18T09:17:14Z</time>
      </trkpt>
      <trkpt lat="44.99551" lon="4.48494">
        <ele>663</ele>
        <time>2015-11-18T09:17:17Z</time>
      </trkpt>
      <trkpt lat="44.99563" lon="4.48505">
        <ele>664</ele>
        <time>2015-11-18T09:17:22Z</time>
      </trkpt>
      <trkpt lat="44.99574" lon="4.48518">
        <ele>665</ele>
        <time>2015-11-18T09:17:27Z</time>
      </trkpt>
      <trkpt lat="44.99578" lon="4.48526">
        <ele>665</ele>
        <time>2015-11-18T09:17:30Z</time>
      </trkpt>
      <trkpt lat="44.99585" lon="4.48536">
        <ele>666</ele>
        <time>2015-11-18T09:17:34Z</time>
      </trkpt>
      <trkpt lat="44.99593" lon="4.48545">
        <ele>666</ele>
        <time>2015-11-18T09:17:38Z</time>
      </trkpt>
      <trkpt lat="44.99605" lon="4.48552">
        <ele>667</ele>
        <time>2015-11-18T09:17:43Z</time>
      </trkpt>
      <trkpt lat="44.99612" lon="4.48559">
        <ele>668</ele>
        <time>2015-11-18T09:17:47Z</time>
      </trkpt>
      <trkpt lat="44.9962" lon="4.48562">
        <ele>669</ele>
        <time>2015-11-18T09:17:50Z</time>
      </trkpt>
      <trkpt lat="44.9963" lon="4.48565">
        <ele>670</ele>
        <time>2015-11-18T09:17:54Z</time>
      </trkpt>
      <trkpt lat="44.99637" lon="4.48572">
        <ele>670</ele>
        <time>2015-11-18T09:17:58Z</time>
      </trkpt>
      <trkpt lat="44.99641" lon="4.48578">
        <ele>671</ele>
        <time>2015-11-18T09:18:01Z</time>
      </trkpt>
      <trkpt lat="44.99643" lon="4.48588">
        <ele>672</ele>
        <time>2015-11-18T09:18:05Z</time>
      </trkpt>
      <trkpt lat="44.99642" lon="4.48598">
        <ele>674</ele>
        <time>2015-11-18T09:18:09Z</time>
      </trkpt>
      <trkpt lat="44.99635" lon="4.48609">
        <ele>674</ele>
        <time>2015-11-18T09:18:13Z</time>
      </trkpt>
      <trkpt lat="44.99633" lon="4.48619">
        <ele>673</ele>
        <time>2015-11-18T09:18:17Z</time>
      </trkpt>
      <trkpt lat="44.99632" lon="4.48634">
        <ele>673</ele>
        <time>2015-11-18T09:18:21Z</time>
      </trkpt>
      <trkpt lat="44.9963" lon="4.48649">
        <ele>673</ele>
        <time>2015-11-18T09:18:25Z</time>
      </trkpt>
      <trkpt lat="44.99628" lon="4.48663">
        <ele>673</ele>
        <time>2015-11-18T09:18:29Z</time>
      </trkpt>
      <trkpt lat="44.99628" lon="4.48673">
        <ele>673</ele>
        <time>2015-11-18T09:18:33Z</time>
      </trkpt>
      <trkpt lat="44.99632" lon="4.48686">
        <ele>672</ele>
        <time>2015-11-18T09:18:37Z</time>
      </trkpt>
      <trkpt lat="44.99633" lon="4.48698">
        <ele>672</ele>
        <time>2015-11-18T09:18:40Z</time>
      </trkpt>
      <trkpt lat="44.99636" lon="4.48712">
        <ele>672</ele>
        <time>2015-11-18T09:18:44Z</time>
      </trkpt>
      <trkpt lat="44.99639" lon="4.4873">
        <ele>672</ele>
        <time>2015-11-18T09:18:49Z</time>
      </trkpt>
      <trkpt lat="44.99642" lon="4.48744">
        <ele>672</ele>
        <time>2015-11-18T09:18:53Z</time>
      </trkpt>
      <trkpt lat="44.99645" lon="4.48753">
        <ele>672</ele>
        <time>2015-11-18T09:18:56Z</time>
      </trkpt>
      <trkpt lat="44.99649" lon="4.48768">
        <ele>673</ele>
        <time>2015-11-18T09:19:00Z</time>
      </trkpt>
      <trkpt lat="44.9965" lon="4.48783">
        <ele>673</ele>
        <time>2015-11-18T09:19:04Z</time>
      </trkpt>
      <trkpt lat="44.99654" lon="4.48801">
        <ele>673</ele>
        <time>2015-11-18T09:19:09Z</time>
      </trkpt>
      <trkpt lat="44.9966" lon="4.48826">
        <ele>674</ele>
        <time>2015-11-18T09:19:18Z</time>
      </trkpt>
      <trkpt lat="44.99662" lon="4.48836">
        <ele>674</ele>
        <time>2015-11-18T09:19:20Z</time>
      </trkpt>
      <trkpt lat="44.99661" lon="4.4884">
        <ele>673</ele>
        <time>2015-11-18T09:19:30Z</time>
      </trkpt>
      <trkpt lat="44.99663" lon="4.48875">
        <ele>671</ele>
        <time>2015-11-18T09:19:30Z</time>
      </trkpt>
      <trkpt lat="44.99666" lon="4.48902">
        <ele>670</ele>
        <time>2015-11-18T09:19:38Z</time>
      </trkpt>
      <trkpt lat="44.99668" lon="4.48923">
        <ele>671</ele>
        <time>2015-11-18T09:19:43Z</time>
      </trkpt>
      <trkpt lat="44.99669" lon="4.48938">
        <ele>670</ele>
        <time>2015-11-18T09:19:47Z</time>
      </trkpt>
      <trkpt lat="44.9967" lon="4.48953">
        <ele>670</ele>
        <time>2015-11-18T09:19:51Z</time>
      </trkpt>
      <trkpt lat="44.99672" lon="4.48965">
        <ele>669</ele>
        <time>2015-11-18T09:19:54Z</time>
      </trkpt>
      <trkpt lat="44.99674" lon="4.48981">
        <ele>669</ele>
        <time>2015-11-18T09:19:58Z</time>
      </trkpt>
      <trkpt lat="44.99676" lon="4.48994">
        <ele>669</ele>
        <time>2015-11-18T09:20:02Z</time>
      </trkpt>
      <trkpt lat="44.99679" lon="4.49007">
        <ele>669</ele>
        <time>2015-11-18T09:20:06Z</time>
      </trkpt>
      <trkpt lat="44.9968" lon="4.49025">
        <ele>669</ele>
        <time>2015-11-18T09:20:11Z</time>
      </trkpt>
      <trkpt lat="44.99681" lon="4.49045">
        <ele>669</ele>
        <time>2015-11-18T09:20:16Z</time>
      </trkpt>
      <trkpt lat="44.99682" lon="4.49059">
        <ele>668</ele>
        <time>2015-11-18T09:20:20Z</time>
      </trkpt>
      <trkpt lat="44.99681" lon="4.49072">
        <ele>668</ele>
        <time>2015-11-18T09:20:24Z</time>
      </trkpt>
      <trkpt lat="44.9968" lon="4.49084">
        <ele>668</ele>
        <time>2015-11-18T09:20:28Z</time>
      </trkpt>
      <trkpt lat="44.99679" lon="4.49097">
        <ele>668</ele>
        <time>2015-11-18T09:20:32Z</time>
      </trkpt>
      <trkpt lat="44.99677" lon="4.4911">
        <ele>668</ele>
        <time>2015-11-18T09:20:36Z</time>
      </trkpt>
      <trkpt lat="44.99677" lon="4.49124">
        <ele>668</ele>
        <time>2015-11-18T09:20:40Z</time>
      </trkpt>
      <trkpt lat="44.99675" lon="4.49143">
        <ele>668</ele>
        <time>2015-11-18T09:20:45Z</time>
      </trkpt>
      <trkpt lat="44.99674" lon="4.49155">
        <ele>667</ele>
        <time>2015-11-18T09:20:49Z</time>
      </trkpt>
      <trkpt lat="44.99673" lon="4.49165">
        <ele>666</ele>
        <time>2015-11-18T09:20:53Z</time>
      </trkpt>
      <trkpt lat="44.99671" lon="4.49179">
        <ele>666</ele>
        <time>2015-11-18T09:20:57Z</time>
      </trkpt>
      <trkpt lat="44.99667" lon="4.4919">
        <ele>665</ele>
        <time>2015-11-18T09:21:00Z</time>
      </trkpt>
      <trkpt lat="44.99664" lon="4.49203">
        <ele>665</ele>
        <time>2015-11-18T09:21:04Z</time>
      </trkpt>
      <trkpt lat="44.99662" lon="4.49218">
        <ele>664</ele>
        <time>2015-11-18T09:21:08Z</time>
      </trkpt>
      <trkpt lat="44.99659" lon="4.49231">
        <ele>664</ele>
        <time>2015-11-18T09:21:12Z</time>
      </trkpt>
      <trkpt lat="44.99659" lon="4.49242">
        <ele>664</ele>
        <time>2015-11-18T09:21:18Z</time>
      </trkpt>
      <trkpt lat="44.99657" lon="4.49252">
        <ele>663</ele>
        <time>2015-11-18T09:21:24Z</time>
      </trkpt>
      <trkpt lat="44.99657" lon="4.49261">
        <ele>663</ele>
        <time>2015-11-18T09:21:29Z</time>
      </trkpt>
      <trkpt lat="44.99656" lon="4.49272">
        <ele>663</ele>
        <time>2015-11-18T09:21:36Z</time>
      </trkpt>
      <trkpt lat="44.99652" lon="4.49283">
        <ele>663</ele>
        <time>2015-11-18T09:21:44Z</time>
      </trkpt>
      <trkpt lat="44.99649" lon="4.49292">
        <ele>663</ele>
        <time>2015-11-18T09:21:48Z</time>
      </trkpt>
      <trkpt lat="44.99647" lon="4.49302">
        <ele>662</ele>
        <time>2015-11-18T09:21:54Z</time>
      </trkpt>
      <trkpt lat="44.99645" lon="4.49314">
        <ele>662</ele>
        <time>2015-11-18T09:22:00Z</time>
      </trkpt>
      <trkpt lat="44.99643" lon="4.49324">
        <ele>662</ele>
        <time>2015-11-18T09:22:05Z</time>
      </trkpt>
      <trkpt lat="44.99644" lon="4.49337">
        <ele>662</ele>
        <time>2015-11-18T09:22:10Z</time>
      </trkpt>
      <trkpt lat="44.99644" lon="4.49348">
        <ele>661</ele>
        <time>2015-11-18T09:22:14Z</time>
      </trkpt>
      <trkpt lat="44.99643" lon="4.49357">
        <ele>661</ele>
        <time>2015-11-18T09:22:19Z</time>
      </trkpt>
      <trkpt lat="44.99647" lon="4.49364">
        <ele>661</ele>
        <time>2015-11-18T09:22:24Z</time>
      </trkpt>
      <trkpt lat="44.99647" lon="4.49375">
        <ele>660</ele>
        <time>2015-11-18T09:22:30Z</time>
      </trkpt>
      <trkpt lat="44.99651" lon="4.49386">
        <ele>660</ele>
        <time>2015-11-18T09:22:35Z</time>
      </trkpt>
      <trkpt lat="44.99649" lon="4.49394">
        <ele>660</ele>
        <time>2015-11-18T09:22:40Z</time>
      </trkpt>
      <trkpt lat="44.99651" lon="4.49407">
        <ele>660</ele>
        <time>2015-11-18T09:22:43Z</time>
      </trkpt>
      <trkpt lat="44.99657" lon="4.49425">
        <ele>659</ele>
        <time>2015-11-18T09:22:48Z</time>
      </trkpt>
      <trkpt lat="44.99656" lon="4.4944">
        <ele>659</ele>
        <time>2015-11-18T09:22:52Z</time>
      </trkpt>
      <trkpt lat="44.99664" lon="4.49459">
        <ele>658</ele>
        <time>2015-11-18T09:22:57Z</time>
      </trkpt>
      <trkpt lat="44.99664" lon="4.49474">
        <ele>657</ele>
        <time>2015-11-18T09:23:02Z</time>
      </trkpt>
      <trkpt lat="44.99662" lon="4.49485">
        <ele>656</ele>
        <time>2015-11-18T09:23:06Z</time>
      </trkpt>
      <trkpt lat="44.99661" lon="4.49493">
        <ele>655</ele>
        <time>2015-11-18T09:23:09Z</time>
      </trkpt>
      <trkpt lat="44.99655" lon="4.49508">
        <ele>655</ele>
        <time>2015-11-18T09:23:13Z</time>
      </trkpt>
      <trkpt lat="44.99652" lon="4.49517">
        <ele>654</ele>
        <time>2015-11-18T09:23:28Z</time>
      </trkpt>
      <trkpt lat="44.99642" lon="4.4954">
        <ele>652</ele>
        <time>2015-11-18T09:23:28Z</time>
      </trkpt>
      <trkpt lat="44.99642" lon="4.49553">
        <ele>650</ele>
        <time>2015-11-18T09:23:35Z</time>
      </trkpt>
      <trkpt lat="44.99642" lon="4.49565">
        <ele>648</ele>
        <time>2015-11-18T09:23:41Z</time>
      </trkpt>
      <trkpt lat="44.99637" lon="4.49576">
        <ele>647</ele>
        <time>2015-11-18T09:23:48Z</time>
      </trkpt>
      <trkpt lat="44.99623" lon="4.49586">
        <ele>646</ele>
        <time>2015-11-18T09:23:58Z</time>
      </trkpt>
      <trkpt lat="44.99619" lon="4.49597">
        <ele>645</ele>
        <time>2015-11-18T09:24:03Z</time>
      </trkpt>
      <trkpt lat="44.99616" lon="4.49604">
        <ele>644</ele>
        <time>2015-11-18T09:24:08Z</time>
      </trkpt>
      <trkpt lat="44.99612" lon="4.49613">
        <ele>643</ele>
        <time>2015-11-18T09:24:12Z</time>
      </trkpt>
      <trkpt lat="44.99608" lon="4.49624">
        <ele>642</ele>
        <time>2015-11-18T09:24:17Z</time>
      </trkpt>
      <trkpt lat="44.99606" lon="4.49636">
        <ele>641</ele>
        <time>2015-11-18T09:24:24Z</time>
      </trkpt>
      <trkpt lat="44.99605" lon="4.49643">
        <ele>641</ele>
        <time>2015-11-18T09:24:30Z</time>
      </trkpt>
      <trkpt lat="44.99604" lon="4.49654">
        <ele>640</ele>
        <time>2015-11-18T09:24:38Z</time>
      </trkpt>
      <trkpt lat="44.99599" lon="4.49661">
        <ele>640</ele>
        <time>2015-11-18T09:24:43Z</time>
      </trkpt>
      <trkpt lat="44.99595" lon="4.49676">
        <ele>639</ele>
        <time>2015-11-18T09:24:50Z</time>
      </trkpt>
      <trkpt lat="44.99592" lon="4.49687">
        <ele>639</ele>
        <time>2015-11-18T09:24:54Z</time>
      </trkpt>
      <trkpt lat="44.9959" lon="4.49695">
        <ele>638</ele>
        <time>2015-11-18T09:24:57Z</time>
      </trkpt>
      <trkpt lat="44.9959" lon="4.49704">
        <ele>638</ele>
        <time>2015-11-18T09:25:02Z</time>
      </trkpt>
      <trkpt lat="44.99585" lon="4.49714">
        <ele>636</ele>
        <time>2015-11-18T09:25:10Z</time>
      </trkpt>
      <trkpt lat="44.99584" lon="4.49724">
        <ele>635</ele>
        <time>2015-11-18T09:25:18Z</time>
      </trkpt>
      <trkpt lat="44.99582" lon="4.49734">
        <ele>634</ele>
        <time>2015-11-18T09:25:23Z</time>
      </trkpt>
      <trkpt lat="44.99584" lon="4.49743">
        <ele>634</ele>
        <time>2015-11-18T09:25:32Z</time>
      </trkpt>
      <trkpt lat="44.99591" lon="4.49751">
        <ele>634</ele>
        <time>2015-11-18T09:25:35Z</time>
      </trkpt>
      <trkpt lat="44.99594" lon="4.49759">
        <ele>634</ele>
        <time>2015-11-18T09:25:39Z</time>
      </trkpt>
      <trkpt lat="44.99597" lon="4.49767">
        <ele>633</ele>
        <time>2015-11-18T09:25:45Z</time>
      </trkpt>
      <trkpt lat="44.99598" lon="4.49779">
        <ele>633</ele>
        <time>2015-11-18T09:25:49Z</time>
      </trkpt>
      <trkpt lat="44.99596" lon="4.49789">
        <ele>632</ele>
        <time>2015-11-18T09:25:57Z</time>
      </trkpt>
      <trkpt lat="44.99597" lon="4.498">
        <ele>631</ele>
        <time>2015-11-18T09:26:02Z</time>
      </trkpt>
      <trkpt lat="44.99595" lon="4.49813">
        <ele>630</ele>
        <time>2015-11-18T09:26:06Z</time>
      </trkpt>
      <trkpt lat="44.99597" lon="4.49826">
        <ele>629</ele>
        <time>2015-11-18T09:26:11Z</time>
      </trkpt>
      <trkpt lat="44.99599" lon="4.49837">
        <ele>628</ele>
        <time>2015-11-18T09:26:15Z</time>
      </trkpt>
      <trkpt lat="44.99599" lon="4.49839">
        <ele>627</ele>
        <time>2015-11-18T09:26:17Z</time>
      </trkpt>
      <trkpt lat="44.99597" lon="4.49851">
        <ele>626</ele>
        <time>2015-11-18T09:26:22Z</time>
      </trkpt>
      <trkpt lat="44.99594" lon="4.49858">
        <ele>625</ele>
        <time>2015-11-18T09:26:22Z</time>
      </trkpt>
      <trkpt lat="44.99592" lon="4.49871">
        <ele>623</ele>
        <time>2015-11-18T09:26:28Z</time>
      </trkpt>
      <trkpt lat="44.99587" lon="4.49892">
        <ele>621</ele>
        <time>2015-11-18T09:26:32Z</time>
      </trkpt>
      <trkpt lat="44.99586" lon="4.49903">
        <ele>621</ele>
        <time>2015-11-18T09:26:39Z</time>
      </trkpt>
      <trkpt lat="44.99585" lon="4.49933">
        <ele>619</ele>
        <time>2015-11-18T09:26:43Z</time>
      </trkpt>
      <trkpt lat="44.99582" lon="4.49944">
        <ele>618</ele>
        <time>2015-11-18T09:26:48Z</time>
      </trkpt>
      <trkpt lat="44.99578" lon="4.49957">
        <ele>617</ele>
        <time>2015-11-18T09:26:52Z</time>
      </trkpt>
      <trkpt lat="44.99577" lon="4.49965">
        <ele>616</ele>
        <time>2015-11-18T09:26:55Z</time>
      </trkpt>
      <trkpt lat="44.99576" lon="4.49975">
        <ele>615</ele>
        <time>2015-11-18T09:26:59Z</time>
      </trkpt>
      <trkpt lat="44.99576" lon="4.49983">
        <ele>614</ele>
        <time>2015-11-18T09:27:03Z</time>
      </trkpt>
      <trkpt lat="44.99577" lon="4.49995">
        <ele>613</ele>
        <time>2015-11-18T09:27:08Z</time>
      </trkpt>
      <trkpt lat="44.99577" lon="4.5001">
        <ele>612</ele>
        <time>2015-11-18T09:27:12Z</time>
      </trkpt>
      <trkpt lat="44.99578" lon="4.50013">
        <ele>611</ele>
        <time>2015-11-18T09:27:27Z</time>
      </trkpt>
      <trkpt lat="44.9958" lon="4.50036">
        <ele>610</ele>
        <time>2015-11-18T09:27:32Z</time>
      </trkpt>
      <trkpt lat="44.99579" lon="4.50048">
        <ele>610</ele>
        <time>2015-11-18T09:27:36Z</time>
      </trkpt>
      <trkpt lat="44.99577" lon="4.50059">
        <ele>610</ele>
        <time>2015-11-18T09:27:42Z</time>
      </trkpt>
      <trkpt lat="44.99578" lon="4.5007">
        <ele>610</ele>
        <time>2015-11-18T09:27:45Z</time>
      </trkpt>
      <trkpt lat="44.99578" lon="4.50084">
        <ele>610</ele>
        <time>2015-11-18T09:27:49Z</time>
      </trkpt>
      <trkpt lat="44.99576" lon="4.50098">
        <ele>610</ele>
        <time>2015-11-18T09:27:54Z</time>
      </trkpt>
      <trkpt lat="44.99577" lon="4.50113">
        <ele>610</ele>
        <time>2015-11-18T09:27:58Z</time>
      </trkpt>
      <trkpt lat="44.9958" lon="4.50135">
        <ele>610</ele>
        <time>2015-11-18T09:28:03Z</time>
      </trkpt>
      <trkpt lat="44.99579" lon="4.50147">
        <ele>610</ele>
        <time>2015-11-18T09:28:06Z</time>
      </trkpt>
      <trkpt lat="44.99579" lon="4.50156">
        <ele>610</ele>
        <time>2015-11-18T09:28:09Z</time>
      </trkpt>
      <trkpt lat="44.99575" lon="4.50171">
        <ele>609</ele>
        <time>2015-11-18T09:28:14Z</time>
      </trkpt>
      <trkpt lat="44.99575" lon="4.50184">
        <ele>609</ele>
        <time>2015-11-18T09:28:18Z</time>
      </trkpt>
      <trkpt lat="44.99575" lon="4.50198">
        <ele>609</ele>
        <time>2015-11-18T09:28:22Z</time>
      </trkpt>
      <trkpt lat="44.99574" lon="4.5021">
        <ele>609</ele>
        <time>2015-11-18T09:28:26Z</time>
      </trkpt>
      <trkpt lat="44.99572" lon="4.50222">
        <ele>609</ele>
        <time>2015-11-18T09:28:30Z</time>
      </trkpt>
      <trkpt lat="44.99568" lon="4.50234">
        <ele>608</ele>
        <time>2015-11-18T09:28:34Z</time>
      </trkpt>
      <trkpt lat="44.99565" lon="4.50244">
        <ele>608</ele>
        <time>2015-11-18T09:28:37Z</time>
      </trkpt>
      <trkpt lat="44.99555" lon="4.50261">
        <ele>609</ele>
        <time>2015-11-18T09:28:42Z</time>
      </trkpt>
      <trkpt lat="44.99546" lon="4.50272">
        <ele>610</ele>
        <time>2015-11-18T09:28:46Z</time>
      </trkpt>
      <trkpt lat="44.99541" lon="4.50286">
        <ele>610</ele>
        <time>2015-11-18T09:28:51Z</time>
      </trkpt>
      <trkpt lat="44.99538" lon="4.50296">
        <ele>610</ele>
        <time>2015-11-18T09:28:56Z</time>
      </trkpt>
      <trkpt lat="44.99535" lon="4.50311">
        <ele>610</ele>
        <time>2015-11-18T09:29:00Z</time>
      </trkpt>
      <trkpt lat="44.99535" lon="4.50322">
        <ele>611</ele>
        <time>2015-11-18T09:29:03Z</time>
      </trkpt>
      <trkpt lat="44.99535" lon="4.50334">
        <ele>610</ele>
        <time>2015-11-18T09:29:07Z</time>
      </trkpt>
      <trkpt lat="44.99537" lon="4.50351">
        <ele>610</ele>
        <time>2015-11-18T09:29:12Z</time>
      </trkpt>
      <trkpt lat="44.99537" lon="4.50365">
        <ele>609</ele>
        <time>2015-11-18T09:29:15Z</time>
      </trkpt>
      <trkpt lat="44.99536" lon="4.50377">
        <ele>609</ele>
        <time>2015-11-18T09:29:19Z</time>
      </trkpt>
      <trkpt lat="44.99533" lon="4.50393">
        <ele>608</ele>
        <time>2015-11-18T09:29:23Z</time>
      </trkpt>
      <trkpt lat="44.99531" lon="4.50406">
        <ele>608</ele>
        <time>2015-11-18T09:29:26Z</time>
      </trkpt>
      <trkpt lat="44.99528" lon="4.5042">
        <ele>607</ele>
        <time>2015-11-18T09:29:30Z</time>
      </trkpt>
      <trkpt lat="44.99525" lon="4.50429">
        <ele>606</ele>
        <time>2015-11-18T09:29:33Z</time>
      </trkpt>
      <trkpt lat="44.99519" lon="4.50443">
        <ele>606</ele>
        <time>2015-11-18T09:29:37Z</time>
      </trkpt>
      <trkpt lat="44.99512" lon="4.50462">
        <ele>605</ele>
        <time>2015-11-18T09:29:42Z</time>
      </trkpt>
      <trkpt lat="44.99506" lon="4.50476">
        <ele>604</ele>
        <time>2015-11-18T09:29:47Z</time>
      </trkpt>
      <trkpt lat="44.99502" lon="4.50487">
        <ele>604</ele>
        <time>2015-11-18T09:29:51Z</time>
      </trkpt>
      <trkpt lat="44.99499" lon="4.50494">
        <ele>604</ele>
        <time>2015-11-18T09:29:55Z</time>
      </trkpt>
      <trkpt lat="44.99496" lon="4.50499">
        <ele>603</ele>
        <time>2015-11-18T09:29:58Z</time>
      </trkpt>
      <trkpt lat="44.9949" lon="4.50509">
        <ele>603</ele>
        <time>2015-11-18T09:30:02Z</time>
      </trkpt>
      <trkpt lat="44.99485" lon="4.50518">
        <ele>602</ele>
        <time>2015-11-18T09:30:06Z</time>
      </trkpt>
      <trkpt lat="44.99481" lon="4.50526">
        <ele>602</ele>
        <time>2015-11-18T09:30:09Z</time>
      </trkpt>
      <trkpt lat="44.9948" lon="4.50538">
        <ele>602</ele>
        <time>2015-11-18T09:30:13Z</time>
      </trkpt>
      <trkpt lat="44.99485" lon="4.50549">
        <ele>602</ele>
        <time>2015-11-18T09:30:18Z</time>
      </trkpt>
      <trkpt lat="44.99488" lon="4.50559">
        <ele>601</ele>
        <time>2015-11-18T09:30:22Z</time>
      </trkpt>
      <trkpt lat="44.99489" lon="4.50567">
        <ele>600</ele>
        <time>2015-11-18T09:30:26Z</time>
      </trkpt>
      <trkpt lat="44.99487" lon="4.50578">
        <ele>599</ele>
        <time>2015-11-18T09:30:32Z</time>
      </trkpt>
      <trkpt lat="44.99486" lon="4.50591">
        <ele>598</ele>
        <time>2015-11-18T09:30:36Z</time>
      </trkpt>
      <trkpt lat="44.99486" lon="4.50603">
        <ele>597</ele>
        <time>2015-11-18T09:30:40Z</time>
      </trkpt>
      <trkpt lat="44.99483" lon="4.50613">
        <ele>596</ele>
        <time>2015-11-18T09:30:44Z</time>
      </trkpt>
      <trkpt lat="44.99485" lon="4.50625">
        <ele>595</ele>
        <time>2015-11-18T09:30:48Z</time>
      </trkpt>
      <trkpt lat="44.99487" lon="4.50645">
        <ele>593</ele>
        <time>2015-11-18T09:30:53Z</time>
      </trkpt>
      <trkpt lat="44.99486" lon="4.50657">
        <ele>592</ele>
        <time>2015-11-18T09:30:56Z</time>
      </trkpt>
      <trkpt lat="44.99487" lon="4.50672">
        <ele>590</ele>
        <time>2015-11-18T09:31:00Z</time>
      </trkpt>
      <trkpt lat="44.99486" lon="4.50684">
        <ele>589</ele>
        <time>2015-11-18T09:31:04Z</time>
      </trkpt>
      <trkpt lat="44.99484" lon="4.50695">
        <ele>588</ele>
        <time>2015-11-18T09:31:08Z</time>
      </trkpt>
      <trkpt lat="44.99478" lon="4.5071">
        <ele>586</ele>
        <time>2015-11-18T09:31:13Z</time>
      </trkpt>
      <trkpt lat="44.99471" lon="4.50721">
        <ele>584</ele>
        <time>2015-11-18T09:31:17Z</time>
      </trkpt>
      <trkpt lat="44.99466" lon="4.5073">
        <ele>582</ele>
        <time>2015-11-18T09:31:22Z</time>
      </trkpt>
      <trkpt lat="44.99459" lon="4.50746">
        <ele>580</ele>
        <time>2015-11-18T09:31:27Z</time>
      </trkpt>
      <trkpt lat="44.99453" lon="4.50758">
        <ele>578</ele>
        <time>2015-11-18T09:31:31Z</time>
      </trkpt>
      <trkpt lat="44.99448" lon="4.50769">
        <ele>576</ele>
        <time>2015-11-18T09:31:36Z</time>
      </trkpt>
      <trkpt lat="44.99445" lon="4.50778">
        <ele>575</ele>
        <time>2015-11-18T09:31:39Z</time>
      </trkpt>
      <trkpt lat="44.99442" lon="4.50792">
        <ele>573</ele>
        <time>2015-11-18T09:31:44Z</time>
      </trkpt>
      <trkpt lat="44.99438" lon="4.50799">
        <ele>573</ele>
        <time>2015-11-18T09:31:48Z</time>
      </trkpt>
      <trkpt lat="44.99434" lon="4.50811">
        <ele>573</ele>
        <time>2015-11-18T09:31:53Z</time>
      </trkpt>
      <trkpt lat="44.99431" lon="4.50821">
        <ele>573</ele>
        <time>2015-11-18T09:31:56Z</time>
      </trkpt>
      <trkpt lat="44.99423" lon="4.50832">
        <ele>572</ele>
        <time>2015-11-18T09:32:01Z</time>
      </trkpt>
      <trkpt lat="44.9942" lon="4.5084">
        <ele>572</ele>
        <time>2015-11-18T09:32:05Z</time>
      </trkpt>
      <trkpt lat="44.99416" lon="4.50848">
        <ele>572</ele>
        <time>2015-11-18T09:32:09Z</time>
      </trkpt>
      <trkpt lat="44.99409" lon="4.5086">
        <ele>571</ele>
        <time>2015-11-18T09:32:14Z</time>
      </trkpt>
      <trkpt lat="44.99402" lon="4.5087">
        <ele>570</ele>
        <time>2015-11-18T09:32:18Z</time>
      </trkpt>
      <trkpt lat="44.99397" lon="4.50875">
        <ele>570</ele>
        <time>2015-11-18T09:32:21Z</time>
      </trkpt>
      <trkpt lat="44.99391" lon="4.50883">
        <ele>568</ele>
        <time>2015-11-18T09:32:26Z</time>
      </trkpt>
      <trkpt lat="44.99385" lon="4.50895">
        <ele>568</ele>
        <time>2015-11-18T09:32:30Z</time>
      </trkpt>
      <trkpt lat="44.99381" lon="4.50902">
        <ele>566</ele>
        <time>2015-11-18T09:32:33Z</time>
      </trkpt>
      <trkpt lat="44.99374" lon="4.50916">
        <ele>563</ele>
        <time>2015-11-18T09:32:38Z</time>
      </trkpt>
      <trkpt lat="44.99368" lon="4.50924">
        <ele>562</ele>
        <time>2015-11-18T09:32:41Z</time>
      </trkpt>
      <trkpt lat="44.99363" lon="4.50933">
        <ele>561</ele>
        <time>2015-11-18T09:32:44Z</time>
      </trkpt>
      <trkpt lat="44.99356" lon="4.50944">
        <ele>559</ele>
        <time>2015-11-18T09:32:49Z</time>
      </trkpt>
      <trkpt lat="44.99351" lon="4.50958">
        <ele>557</ele>
        <time>2015-11-18T09:32:54Z</time>
      </trkpt>
      <trkpt lat="44.99354" lon="4.50976">
        <ele>555</ele>
        <time>2015-11-18T09:32:58Z</time>
      </trkpt>
      <trkpt lat="44.99356" lon="4.50988">
        <ele>554</ele>
        <time>2015-11-18T09:33:03Z</time>
      </trkpt>
      <trkpt lat="44.99358" lon="4.50997">
        <ele>554</ele>
        <time>2015-11-18T09:33:06Z</time>
      </trkpt>
      <trkpt lat="44.99361" lon="4.51012">
        <ele>553</ele>
        <time>2015-11-18T09:33:11Z</time>
      </trkpt>
      <trkpt lat="44.99365" lon="4.51026">
        <ele>552</ele>
        <time>2015-11-18T09:33:15Z</time>
      </trkpt>
      <trkpt lat="44.99368" lon="4.51036">
        <ele>552</ele>
        <time>2015-11-18T09:33:18Z</time>
      </trkpt>
      <trkpt lat="44.99374" lon="4.51051">
        <ele>551</ele>
        <time>2015-11-18T09:33:23Z</time>
      </trkpt>
      <trkpt lat="44.99381" lon="4.51061">
        <ele>550</ele>
        <time>2015-11-18T09:33:27Z</time>
      </trkpt>
      <trkpt lat="44.99384" lon="4.51067">
        <ele>550</ele>
        <time>2015-11-18T09:33:30Z</time>
      </trkpt>
      <trkpt lat="44.9939" lon="4.51081">
        <ele>549</ele>
        <time>2015-11-18T09:33:34Z</time>
      </trkpt>
      <trkpt lat="44.99395" lon="4.51096">
        <ele>548</ele>
        <time>2015-11-18T09:33:38Z</time>
      </trkpt>
      <trkpt lat="44.99401" lon="4.51115">
        <ele>547</ele>
        <time>2015-11-18T09:33:43Z</time>
      </trkpt>
      <trkpt lat="44.99403" lon="4.51125">
        <ele>547</ele>
        <time>2015-11-18T09:33:46Z</time>
      </trkpt>
      <trkpt lat="44.99409" lon="4.51137">
        <ele>545</ele>
        <time>2015-11-18T09:33:51Z</time>
      </trkpt>
      <trkpt lat="44.99413" lon="4.51142">
        <ele>544</ele>
        <time>2015-11-18T09:33:54Z</time>
      </trkpt>
      <trkpt lat="44.99421" lon="4.5115">
        <ele>543</ele>
        <time>2015-11-18T09:33:59Z</time>
      </trkpt>
      <trkpt lat="44.99427" lon="4.51155">
        <ele>542</ele>
        <time>2015-11-18T09:34:02Z</time>
      </trkpt>
      <trkpt lat="44.99433" lon="4.51159">
        <ele>541</ele>
        <time>2015-11-18T09:34:05Z</time>
      </trkpt>
      <trkpt lat="44.99445" lon="4.51163">
        <ele>540</ele>
        <time>2015-11-18T09:34:10Z</time>
      </trkpt>
      <trkpt lat="44.99453" lon="4.51166">
        <ele>538</ele>
        <time>2015-11-18T09:34:16Z</time>
      </trkpt>
      <trkpt lat="44.9946" lon="4.5117">
        <ele>537</ele>
        <time>2015-11-18T09:34:19Z</time>
      </trkpt>
      <trkpt lat="44.99468" lon="4.51175">
        <ele>535</ele>
        <time>2015-11-18T09:34:24Z</time>
      </trkpt>
      <trkpt lat="44.99474" lon="4.51177">
        <ele>534</ele>
        <time>2015-11-18T09:34:28Z</time>
      </trkpt>
      <trkpt lat="44.99481" lon="4.51179">
        <ele>533</ele>
        <time>2015-11-18T09:34:32Z</time>
      </trkpt>
      <trkpt lat="44.99493" lon="4.51179">
        <ele>532</ele>
        <time>2015-11-18T09:34:37Z</time>
      </trkpt>
      <trkpt lat="44.99499" lon="4.51183">
        <ele>530</ele>
        <time>2015-11-18T09:34:41Z</time>
      </trkpt>
      <trkpt lat="44.99504" lon="4.51189">
        <ele>528</ele>
        <time>2015-11-18T09:34:46Z</time>
      </trkpt>
      <trkpt lat="44.99509" lon="4.5121">
        <ele>526</ele>
        <time>2015-11-18T09:34:50Z</time>
      </trkpt>
      <trkpt lat="44.99511" lon="4.51223">
        <ele>525</ele>
        <time>2015-11-18T09:34:54Z</time>
      </trkpt>
      <trkpt lat="44.99515" lon="4.51235">
        <ele>522</ele>
        <time>2015-11-18T09:35:00Z</time>
      </trkpt>
      <trkpt lat="44.99522" lon="4.51242">
        <ele>519</ele>
        <time>2015-11-18T09:35:06Z</time>
      </trkpt>
      <trkpt lat="44.99523" lon="4.51256">
        <ele>518</ele>
        <time>2015-11-18T09:35:10Z</time>
      </trkpt>
      <trkpt lat="44.99527" lon="4.51269">
        <ele>517</ele>
        <time>2015-11-18T09:35:14Z</time>
      </trkpt>
      <trkpt lat="44.99531" lon="4.51279">
        <ele>515</ele>
        <time>2015-11-18T09:35:19Z</time>
      </trkpt>
      <trkpt lat="44.99541" lon="4.51297">
        <ele>513</ele>
        <time>2015-11-18T09:35:24Z</time>
      </trkpt>
      <trkpt lat="44.99553" lon="4.51312">
        <ele>512</ele>
        <time>2015-11-18T09:35:28Z</time>
      </trkpt>
      <trkpt lat="44.99565" lon="4.51318">
        <ele>510</ele>
        <time>2015-11-18T09:35:32Z</time>
      </trkpt>
      <trkpt lat="44.99575" lon="4.51321">
        <ele>508</ele>
        <time>2015-11-18T09:35:36Z</time>
      </trkpt>
      <trkpt lat="44.9958" lon="4.51326">
        <ele>507</ele>
        <time>2015-11-18T09:35:40Z</time>
      </trkpt>
      <trkpt lat="44.99588" lon="4.51323">
        <ele>504</ele>
        <time>2015-11-18T09:35:47Z</time>
      </trkpt>
      <trkpt lat="44.99596" lon="4.5132">
        <ele>502</ele>
        <time>2015-11-18T09:35:52Z</time>
      </trkpt>
      <trkpt lat="44.99601" lon="4.51315">
        <ele>500</ele>
        <time>2015-11-18T09:35:56Z</time>
      </trkpt>
      <trkpt lat="44.99605" lon="4.51307">
        <ele>499</ele>
        <time>2015-11-18T09:36:01Z</time>
      </trkpt>
      <trkpt lat="44.99613" lon="4.51315">
        <ele>497</ele>
        <time>2015-11-18T09:36:06Z</time>
      </trkpt>
      <trkpt lat="44.99619" lon="4.51327">
        <ele>495</ele>
        <time>2015-11-18T09:36:10Z</time>
      </trkpt>
      <trkpt lat="44.99621" lon="4.51333">
        <ele>494</ele>
        <time>2015-11-18T09:36:14Z</time>
      </trkpt>
      <trkpt lat="44.99622" lon="4.51347">
        <ele>491</ele>
        <time>2015-11-18T09:36:19Z</time>
      </trkpt>
      <trkpt lat="44.99619" lon="4.51356">
        <ele>490</ele>
        <time>2015-11-18T09:36:23Z</time>
      </trkpt>
      <trkpt lat="44.99618" lon="4.51368">
        <ele>488</ele>
        <time>2015-11-18T09:36:29Z</time>
      </trkpt>
      <trkpt lat="44.99617" lon="4.51379">
        <ele>489</ele>
        <time>2015-11-18T09:36:39Z</time>
      </trkpt>
      <trkpt lat="44.99613" lon="4.5139">
        <ele>488</ele>
        <time>2015-11-18T09:36:45Z</time>
      </trkpt>
      <trkpt lat="44.99609" lon="4.51401">
        <ele>488</ele>
        <time>2015-11-18T09:36:51Z</time>
      </trkpt>
      <trkpt lat="44.99606" lon="4.51411">
        <ele>487</ele>
        <time>2015-11-18T09:36:57Z</time>
      </trkpt>
      <trkpt lat="44.99604" lon="4.51423">
        <ele>487</ele>
        <time>2015-11-18T09:37:03Z</time>
      </trkpt>
      <trkpt lat="44.99604" lon="4.51435">
        <ele>486</ele>
        <time>2015-11-18T09:37:09Z</time>
      </trkpt>
      <trkpt lat="44.99602" lon="4.51446">
        <ele>486</ele>
        <time>2015-11-18T09:37:14Z</time>
      </trkpt>
      <trkpt lat="44.99599" lon="4.51458">
        <ele>485</ele>
        <time>2015-11-18T09:37:20Z</time>
      </trkpt>
      <trkpt lat="44.99596" lon="4.51468">
        <ele>484</ele>
        <time>2015-11-18T09:37:25Z</time>
      </trkpt>
      <trkpt lat="44.99591" lon="4.51476">
        <ele>484</ele>
        <time>2015-11-18T09:37:30Z</time>
      </trkpt>
      <trkpt lat="44.99585" lon="4.51479">
        <ele>483</ele>
        <time>2015-11-18T09:37:35Z</time>
      </trkpt>
      <trkpt lat="44.99578" lon="4.51478">
        <ele>483</ele>
        <time>2015-11-18T09:37:39Z</time>
      </trkpt>
      <trkpt lat="44.9957" lon="4.51474">
        <ele>481</ele>
        <time>2015-11-18T09:37:44Z</time>
      </trkpt>
      <trkpt lat="44.99564" lon="4.51468">
        <ele>480</ele>
        <time>2015-11-18T09:37:52Z</time>
      </trkpt>
      <trkpt lat="44.99557" lon="4.51466">
        <ele>480</ele>
        <time>2015-11-18T09:37:56Z</time>
      </trkpt>
      <trkpt lat="44.99549" lon="4.51465">
        <ele>480</ele>
        <time>2015-11-18T09:38:01Z</time>
      </trkpt>
      <trkpt lat="44.99542" lon="4.51466">
        <ele>481</ele>
        <time>2015-11-18T09:38:05Z</time>
      </trkpt>
      <trkpt lat="44.99535" lon="4.51472">
        <ele>481</ele>
        <time>2015-11-18T09:38:10Z</time>
      </trkpt>
      <trkpt lat="44.99532" lon="4.51483">
        <ele>481</ele>
        <time>2015-11-18T09:38:17Z</time>
      </trkpt>
      <trkpt lat="44.99531" lon="4.51495">
        <ele>480</ele>
        <time>2015-11-18T09:38:23Z</time>
      </trkpt>
      <trkpt lat="44.99531" lon="4.51506">
        <ele>481</ele>
        <time>2015-11-18T09:38:27Z</time>
      </trkpt>
      <trkpt lat="44.99531" lon="4.51514">
        <ele>481</ele>
        <time>2015-11-18T09:38:31Z</time>
      </trkpt>
      <trkpt lat="44.9953" lon="4.51526">
        <ele>481</ele>
        <time>2015-11-18T09:38:36Z</time>
      </trkpt>
      <trkpt lat="44.99527" lon="4.51536">
        <ele>480</ele>
        <time>2015-11-18T09:38:43Z</time>
      </trkpt>
      <trkpt lat="44.99531" lon="4.51547">
        <ele>480</ele>
        <time>2015-11-18T09:38:49Z</time>
      </trkpt>
      <trkpt lat="44.99529" lon="4.51558">
        <ele>479</ele>
        <time>2015-11-18T09:38:55Z</time>
      </trkpt>
      <trkpt lat="44.99531" lon="4.5157">
        <ele>479</ele>
        <time>2015-11-18T09:39:02Z</time>
      </trkpt>
      <trkpt lat="44.9953" lon="4.51579">
        <ele>478</ele>
        <time>2015-11-18T09:39:08Z</time>
      </trkpt>
      <trkpt lat="44.99527" lon="4.5159">
        <ele>478</ele>
        <time>2015-11-18T09:39:15Z</time>
      </trkpt>
      <trkpt lat="44.99526" lon="4.51607">
        <ele>477</ele>
        <time>2015-11-18T09:39:20Z</time>
      </trkpt>
      <trkpt lat="44.99521" lon="4.51616">
        <ele>477</ele>
        <time>2015-11-18T09:39:26Z</time>
      </trkpt>
      <trkpt lat="44.99518" lon="4.51627">
        <ele>475</ele>
        <time>2015-11-18T09:39:33Z</time>
      </trkpt>
      <trkpt lat="44.99514" lon="4.51636">
        <ele>474</ele>
        <time>2015-11-18T09:39:39Z</time>
      </trkpt>
      <trkpt lat="44.99509" lon="4.51637">
        <ele>473</ele>
        <time>2015-11-18T09:39:45Z</time>
      </trkpt>
      <trkpt lat="44.99509" lon="4.51637">
        <ele>473</ele>
        <time>2015-11-18T09:39:46Z</time>
      </trkpt>
    </trkseg>
  </trk>
</gpx>